<?xml version="1.0" encoding="UTF-8" standalone="no" ?><gpx xmlns="http://www.topografix.com/GPX/1/1" xmlns:gpxx="http://www.garmin.com/xmlschemas/GpxExtensions/v3" xmlns:wptx1="http://www.garmin.com/xmlschemas/WaypointExtension/v1" xmlns:gpxtpx="http://www.garmin.com/xmlschemas/TrackPointExtension/v1" creator="eTrex 30" version="1.1" xmlns:xsi="http://www.w3.org/2001/XMLSchema-instance" xsi:schemaLocation="http://www.topografix.com/GPX/1/1 http://www.topografix.com/GPX/1/1/gpx.xsd http://www.garmin.com/xmlschemas/GpxExtensions/v3 http://www8.garmin.com/xmlschemas/GpxExtensionsv3.xsd http://www.garmin.com/xmlschemas/WaypointExtension/v1 http://www8.garmin.com/xmlschemas/WaypointExtensionv1.xsd http://www.garmin.com/xmlschemas/TrackPointExtension/v1 http://www.garmin.com/xmlschemas/TrackPointExtensionv1.xsd"><metadata><link href="http://www.garmin.com"><text>Garmin International</text></link><time>2012-11-01T08:55:53Z</time></metadata><trk><name>01-NOV-12 09:55:43 AM</name><extensions><gpxx:TrackExtension><gpxx:DisplayColor>Magenta</gpxx:DisplayColor></gpxx:TrackExtension></extensions><trkseg><trkpt lat="41.3664645050" lon="2.0751987118"><ele>187.11</ele><time>2012-11-01T06:41:04Z</time></trkpt><trkpt lat="41.3662239444" lon="2.0750749111"><ele>187.11</ele><time>2012-11-01T06:41:05Z</time></trkpt><trkpt lat="41.3664438855" lon="2.0751771703"><ele>182.79</ele><time>2012-11-01T06:41:09Z</time></trkpt><trkpt lat="41.3664538600" lon="2.0751798525"><ele>178.94</ele><time>2012-11-01T06:41:10Z</time></trkpt><trkpt lat="41.3664518483" lon="2.0751794335"><ele>175.10</ele><time>2012-11-01T06:41:11Z</time></trkpt><trkpt lat="41.3664476573" lon="2.0751766674"><ele>171.73</ele><time>2012-11-01T06:41:12Z</time></trkpt><trkpt lat="41.3664486632" lon="2.0751783438"><ele>167.89</ele><time>2012-11-01T06:41:13Z</time></trkpt><trkpt lat="41.3664516807" lon="2.0751807746"><ele>164.52</ele><time>2012-11-01T06:41:14Z</time></trkpt><trkpt lat="41.3664513454" lon="2.0751801878"><ele>161.16</ele><time>2012-11-01T06:41:15Z</time></trkpt><trkpt lat="41.3664540276" lon="2.0751821157"><ele>158.27</ele><time>2012-11-01T06:41:16Z</time></trkpt><trkpt lat="41.3664593082" lon="2.0751857199"><ele>154.91</ele><time>2012-11-01T06:41:17Z</time></trkpt><trkpt lat="41.3664715458" lon="2.0751888212"><ele>149.62</ele><time>2012-11-01T06:41:19Z</time></trkpt><trkpt lat="41.3664837833" lon="2.0751900785"><ele>144.34</ele><time>2012-11-01T06:41:21Z</time></trkpt><trkpt lat="41.3664889801" lon="2.0751898270"><ele>139.53</ele><time>2012-11-01T06:41:22Z</time></trkpt><trkpt lat="41.3664902374" lon="2.0751884021"><ele>135.20</ele><time>2012-11-01T06:41:24Z</time></trkpt><trkpt lat="41.3664907403" lon="2.0751862228"><ele>135.20</ele><time>2012-11-01T06:41:25Z</time></trkpt><trkpt lat="41.3664826099" lon="2.0751783438"><ele>130.88</ele><time>2012-11-01T06:41:27Z</time></trkpt><trkpt lat="41.3664738089" lon="2.0751744881"><ele>127.03</ele><time>2012-11-01T06:41:29Z</time></trkpt><trkpt lat="41.3664685283" lon="2.0751713030"><ele>123.19</ele><time>2012-11-01T06:41:31Z</time></trkpt><trkpt lat="41.3664660975" lon="2.0751701295"><ele>119.34</ele><time>2012-11-01T06:41:33Z</time></trkpt><trkpt lat="41.3664679416" lon="2.0751754940"><ele>117.42</ele><time>2012-11-01T06:41:34Z</time></trkpt><trkpt lat="41.3664605655" lon="2.0752136316"><ele>112.61</ele><time>2012-11-01T06:41:37Z</time></trkpt><trkpt lat="41.3664430473" lon="2.0752469916"><ele>109.73</ele><time>2012-11-01T06:41:39Z</time></trkpt><trkpt lat="41.3663095236" lon="2.0752158947"><ele>103.96</ele><time>2012-11-01T06:41:43Z</time></trkpt><trkpt lat="41.3662039954" lon="2.0751314890"><ele>100.11</ele><time>2012-11-01T06:41:46Z</time></trkpt><trkpt lat="41.3661492616" lon="2.0750653557"><ele>96.75</ele><time>2012-11-01T06:41:48Z</time></trkpt><trkpt lat="41.3661273010" lon="2.0750321634"><ele>95.31</ele><time>2012-11-01T06:41:50Z</time></trkpt><trkpt lat="41.3660949469" lon="2.0750342589"><ele>91.94</ele><time>2012-11-01T06:41:53Z</time></trkpt><trkpt lat="41.3659948669" lon="2.0751222689"><ele>87.14</ele><time>2012-11-01T06:41:58Z</time></trkpt><trkpt lat="41.3658815436" lon="2.0752657671"><ele>83.29</ele><time>2012-11-01T06:42:02Z</time></trkpt><trkpt lat="41.3657998201" lon="2.0753609017"><ele>81.37</ele><time>2012-11-01T06:42:04Z</time></trkpt><trkpt lat="41.3657116424" lon="2.0755070820"><ele>79.93</ele><time>2012-11-01T06:42:08Z</time></trkpt><trkpt lat="41.3655776996" lon="2.0756930765"><ele>78.00</ele><time>2012-11-01T06:42:13Z</time></trkpt><trkpt lat="41.3654792123" lon="2.0758310426"><ele>76.56</ele><time>2012-11-01T06:42:16Z</time></trkpt><trkpt lat="41.3654090557" lon="2.0759141073"><ele>75.12</ele><time>2012-11-01T06:42:19Z</time></trkpt><trkpt lat="41.3652751129" lon="2.0760954916"><ele>73.20</ele><time>2012-11-01T06:42:25Z</time></trkpt><trkpt lat="41.3652443513" lon="2.0761831664"><ele>72.72</ele><time>2012-11-01T06:42:29Z</time></trkpt><trkpt lat="41.3653591834" lon="2.0763512235"><ele>71.76</ele><time>2012-11-01T06:42:37Z</time></trkpt><trkpt lat="41.3653676491" lon="2.0763790514"><ele>71.76</ele><time>2012-11-01T06:42:38Z</time></trkpt><trkpt lat="41.3654869236" lon="2.0765639562"><ele>71.27</ele><time>2012-11-01T06:42:46Z</time></trkpt><trkpt lat="41.3656240515" lon="2.0767353661"><ele>70.79</ele><time>2012-11-01T06:42:54Z</time></trkpt><trkpt lat="41.3658110518" lon="2.0768871624"><ele>68.87</ele><time>2012-11-01T06:43:02Z</time></trkpt><trkpt lat="41.3660335075" lon="2.0771000627"><ele>66.47</ele><time>2012-11-01T06:43:12Z</time></trkpt><trkpt lat="41.3663189113" lon="2.0773831196"><ele>66.47</ele><time>2012-11-01T06:43:25Z</time></trkpt><trkpt lat="41.3665137067" lon="2.0775819384"><ele>66.95</ele><time>2012-11-01T06:43:34Z</time></trkpt><trkpt lat="41.3666600548" lon="2.0777065773"><ele>66.95</ele><time>2012-11-01T06:43:41Z</time></trkpt><trkpt lat="41.3668364100" lon="2.0778783225"><ele>67.43</ele><time>2012-11-01T06:43:49Z</time></trkpt><trkpt lat="41.3670117594" lon="2.0780420210"><ele>67.91</ele><time>2012-11-01T06:43:57Z</time></trkpt><trkpt lat="41.3671787269" lon="2.0782188792"><ele>68.39</ele><time>2012-11-01T06:44:05Z</time></trkpt><trkpt lat="41.3673459459" lon="2.0784256607"><ele>68.87</ele><time>2012-11-01T06:44:14Z</time></trkpt><trkpt lat="41.3675281685" lon="2.0786111522"><ele>69.83</ele><time>2012-11-01T06:44:23Z</time></trkpt><trkpt lat="41.3677596767" lon="2.0788277406"><ele>69.83</ele><time>2012-11-01T06:44:33Z</time></trkpt><trkpt lat="41.3680349384" lon="2.0790762641"><ele>70.31</ele><time>2012-11-01T06:44:45Z</time></trkpt><trkpt lat="41.3682922628" lon="2.0793174952"><ele>70.79</ele><time>2012-11-01T06:44:57Z</time></trkpt><trkpt lat="41.3685144670" lon="2.0793901663"><ele>71.76</ele><time>2012-11-01T06:45:06Z</time></trkpt><trkpt lat="41.3687310554" lon="2.0794966165"><ele>72.24</ele><time>2012-11-01T06:45:15Z</time></trkpt><trkpt lat="41.3688507490" lon="2.0794490911"><ele>72.72</ele><time>2012-11-01T06:45:20Z</time></trkpt><trkpt lat="41.3690722827" lon="2.0793298166"><ele>73.68</ele><time>2012-11-01T06:45:30Z</time></trkpt><trkpt lat="41.3693089876" lon="2.0791690517"><ele>74.16</ele><time>2012-11-01T06:45:40Z</time></trkpt><trkpt lat="41.3695310242" lon="2.0789905172"><ele>74.64</ele><time>2012-11-01T06:45:50Z</time></trkpt><trkpt lat="41.3696975727" lon="2.0788563229"><ele>75.12</ele><time>2012-11-01T06:45:59Z</time></trkpt><trkpt lat="41.3698235527" lon="2.0786857512"><ele>76.08</ele><time>2012-11-01T06:46:06Z</time></trkpt><trkpt lat="41.3699490298" lon="2.0784986671"><ele>76.56</ele><time>2012-11-01T06:46:13Z</time></trkpt><trkpt lat="41.3701475132" lon="2.0782695059"><ele>77.04</ele><time>2012-11-01T06:46:23Z</time></trkpt><trkpt lat="41.3703871518" lon="2.0780661609"><ele>77.52</ele><time>2012-11-01T06:46:34Z</time></trkpt><trkpt lat="41.3705786783" lon="2.0778815914"><ele>77.52</ele><time>2012-11-01T06:46:43Z</time></trkpt><trkpt lat="41.3707896508" lon="2.0776447188"><ele>78.00</ele><time>2012-11-01T06:46:53Z</time></trkpt><trkpt lat="41.3709444646" lon="2.0774469897"><ele>78.00</ele><time>2012-11-01T06:47:01Z</time></trkpt><trkpt lat="41.3711152039" lon="2.0772281382"><ele>78.48</ele><time>2012-11-01T06:47:10Z</time></trkpt><trkpt lat="41.3712411001" lon="2.0770540461"><ele>78.48</ele><time>2012-11-01T06:47:18Z</time></trkpt><trkpt lat="41.3712540921" lon="2.0770377014"><ele>78.97</ele><time>2012-11-01T06:47:19Z</time></trkpt><trkpt lat="41.3713647332" lon="2.0770983864"><ele>78.48</ele><time>2012-11-01T06:47:25Z</time></trkpt><trkpt lat="41.3715120032" lon="2.0769959595"><ele>78.97</ele><time>2012-11-01T06:47:32Z</time></trkpt><trkpt lat="41.3716388214" lon="2.0769315865"><ele>78.97</ele><time>2012-11-01T06:47:37Z</time></trkpt><trkpt lat="41.3718602713" lon="2.0767436642"><ele>79.45</ele><time>2012-11-01T06:47:47Z</time></trkpt><trkpt lat="41.3719940465" lon="2.0766006690"><ele>79.45</ele><time>2012-11-01T06:47:54Z</time></trkpt><trkpt lat="41.3720315136" lon="2.0763979945"><ele>79.45</ele><time>2012-11-01T06:48:00Z</time></trkpt><trkpt lat="41.3721261453" lon="2.0762564242"><ele>79.45</ele><time>2012-11-01T06:48:05Z</time></trkpt><trkpt lat="41.3723579049" lon="2.0758877881"><ele>79.93</ele><time>2012-11-01T06:48:17Z</time></trkpt><trkpt lat="41.3725551311" lon="2.0755991153"><ele>79.93</ele><time>2012-11-01T06:48:27Z</time></trkpt><trkpt lat="41.3727276307" lon="2.0753342472"><ele>80.41</ele><time>2012-11-01T06:48:36Z</time></trkpt><trkpt lat="41.3729277905" lon="2.0750138909"><ele>80.89</ele><time>2012-11-01T06:48:47Z</time></trkpt><trkpt lat="41.3730331510" lon="2.0749423094"><ele>81.37</ele><time>2012-11-01T06:48:52Z</time></trkpt><trkpt lat="41.3731520902" lon="2.0749740768"><ele>81.85</ele><time>2012-11-01T06:48:57Z</time></trkpt><trkpt lat="41.3732719515" lon="2.0750139747"><ele>82.33</ele><time>2012-11-01T06:49:02Z</time></trkpt><trkpt lat="41.3734520786" lon="2.0752135478"><ele>82.33</ele><time>2012-11-01T06:49:11Z</time></trkpt><trkpt lat="41.3736662362" lon="2.0754352491"><ele>82.33</ele><time>2012-11-01T06:49:21Z</time></trkpt><trkpt lat="41.3739256561" lon="2.0756506640"><ele>82.81</ele><time>2012-11-01T06:49:33Z</time></trkpt><trkpt lat="41.3741385564" lon="2.0757611375"><ele>83.77</ele><time>2012-11-01T06:49:42Z</time></trkpt><trkpt lat="41.3743431587" lon="2.0758474711"><ele>84.25</ele><time>2012-11-01T06:49:51Z</time></trkpt><trkpt lat="41.3745923527" lon="2.0759457909"><ele>84.73</ele><time>2012-11-01T06:50:02Z</time></trkpt><trkpt lat="41.3748199213" lon="2.0760436077"><ele>85.21</ele><time>2012-11-01T06:50:12Z</time></trkpt><trkpt lat="41.3750004675" lon="2.0761151891"><ele>85.69</ele><time>2012-11-01T06:50:20Z</time></trkpt><trkpt lat="41.3752014656" lon="2.0762093179"><ele>86.18</ele><time>2012-11-01T06:50:29Z</time></trkpt><trkpt lat="41.3753629010" lon="2.0763935521"><ele>86.66</ele><time>2012-11-01T06:50:38Z</time></trkpt><trkpt lat="41.3754657470" lon="2.0766350348"><ele>87.62</ele><time>2012-11-01T06:50:47Z</time></trkpt><trkpt lat="41.3755801599" lon="2.0768749248"><ele>88.10</ele><time>2012-11-01T06:50:57Z</time></trkpt><trkpt lat="41.3756349776" lon="2.0770136453"><ele>89.06</ele><time>2012-11-01T06:51:03Z</time></trkpt><trkpt lat="41.3755949959" lon="2.0772805251"><ele>89.54</ele><time>2012-11-01T06:51:12Z</time></trkpt><trkpt lat="41.3756509870" lon="2.0775128715"><ele>90.50</ele><time>2012-11-01T06:51:20Z</time></trkpt><trkpt lat="41.3758118358" lon="2.0776002947"><ele>90.50</ele><time>2012-11-01T06:51:27Z</time></trkpt><trkpt lat="41.3759059645" lon="2.0775658451"><ele>90.02</ele><time>2012-11-01T06:51:30Z</time></trkpt><trkpt lat="41.3761075493" lon="2.0774277952"><ele>89.54</ele><time>2012-11-01T06:51:36Z</time></trkpt><trkpt lat="41.3762141671" lon="2.0774445590"><ele>90.02</ele><time>2012-11-01T06:51:40Z</time></trkpt><trkpt lat="41.3763561565" lon="2.0773894060"><ele>90.50</ele><time>2012-11-01T06:51:48Z</time></trkpt><trkpt lat="41.3764917757" lon="2.0772661082"><ele>91.46</ele><time>2012-11-01T06:51:59Z</time></trkpt><trkpt lat="41.3765073661" lon="2.0772220194"><ele>91.94</ele><time>2012-11-01T06:52:01Z</time></trkpt><trkpt lat="41.3767495193" lon="2.0771495160"><ele>92.90</ele><time>2012-11-01T06:52:10Z</time></trkpt><trkpt lat="41.3767940272" lon="2.0771015715"><ele>93.87</ele><time>2012-11-01T06:52:16Z</time></trkpt><trkpt lat="41.3770835381" lon="2.0769970492"><ele>95.79</ele><time>2012-11-01T06:52:25Z</time></trkpt><trkpt lat="41.3773240987" lon="2.0769016631"><ele>97.71</ele><time>2012-11-01T06:52:37Z</time></trkpt><trkpt lat="41.3774908148" lon="2.0768222865"><ele>99.15</ele><time>2012-11-01T06:52:46Z</time></trkpt><trkpt lat="41.3776800781" lon="2.0767345279"><ele>100.60</ele><time>2012-11-01T06:52:56Z</time></trkpt><trkpt lat="41.3778483029" lon="2.0766435005"><ele>102.04</ele><time>2012-11-01T06:53:05Z</time></trkpt><trkpt lat="41.3780153543" lon="2.0765624475"><ele>103.00</ele><time>2012-11-01T06:53:14Z</time></trkpt><trkpt lat="41.3781507220" lon="2.0765199512"><ele>103.96</ele><time>2012-11-01T06:53:22Z</time></trkpt><trkpt lat="41.3783203717" lon="2.0764330309"><ele>104.92</ele><time>2012-11-01T06:53:30Z</time></trkpt><trkpt lat="41.3783702441" lon="2.0764181111"><ele>105.40</ele><time>2012-11-01T06:53:33Z</time></trkpt><trkpt lat="41.3784821425" lon="2.0763807278"><ele>105.88</ele><time>2012-11-01T06:53:39Z</time></trkpt><trkpt lat="41.3785326015" lon="2.0764493756"><ele>106.36</ele><time>2012-11-01T06:53:43Z</time></trkpt><trkpt lat="41.3786854036" lon="2.0764979068"><ele>106.84</ele><time>2012-11-01T06:53:49Z</time></trkpt><trkpt lat="41.3787540514" lon="2.0763668977"><ele>106.84</ele><time>2012-11-01T06:53:54Z</time></trkpt><trkpt lat="41.3788484316" lon="2.0761386584"><ele>106.84</ele><time>2012-11-01T06:54:02Z</time></trkpt><trkpt lat="41.3790344261" lon="2.0760413446"><ele>107.81</ele><time>2012-11-01T06:54:11Z</time></trkpt><trkpt lat="41.3791941013" lon="2.0759638119"><ele>108.29</ele><time>2012-11-01T06:54:18Z</time></trkpt><trkpt lat="41.3794039004" lon="2.0758611336"><ele>108.77</ele><time>2012-11-01T06:54:27Z</time></trkpt><trkpt lat="41.3794242684" lon="2.0758458786"><ele>108.77</ele><time>2012-11-01T06:54:28Z</time></trkpt><trkpt lat="41.3795623183" lon="2.0757506602"><ele>108.77</ele><time>2012-11-01T06:54:34Z</time></trkpt><trkpt lat="41.3798166253" lon="2.0756236743"><ele>108.77</ele><time>2012-11-01T06:54:43Z</time></trkpt><trkpt lat="41.3800732791" lon="2.0754841994"><ele>109.25</ele><time>2012-11-01T06:54:53Z</time></trkpt><trkpt lat="41.3802938908" lon="2.0753701217"><ele>108.77</ele><time>2012-11-01T06:55:01Z</time></trkpt><trkpt lat="41.3804991636" lon="2.0752762444"><ele>109.25</ele><time>2012-11-01T06:55:10Z</time></trkpt><trkpt lat="41.3805134129" lon="2.0752678625"><ele>109.25</ele><time>2012-11-01T06:55:17Z</time></trkpt><trkpt lat="41.3805154245" lon="2.0752661023"><ele>112.13</ele><time>2012-11-01T06:55:24Z</time></trkpt><trkpt lat="41.3805165980" lon="2.0752650965"><ele>109.25</ele><time>2012-11-01T06:55:27Z</time></trkpt><trkpt lat="41.3805750199" lon="2.0752453152"><ele>109.25</ele><time>2012-11-01T06:55:40Z</time></trkpt><trkpt lat="41.3807957992" lon="2.0751362666"><ele>108.77</ele><time>2012-11-01T06:55:48Z</time></trkpt><trkpt lat="41.3810639363" lon="2.0750012342"><ele>108.77</ele><time>2012-11-01T06:55:57Z</time></trkpt><trkpt lat="41.3813667744" lon="2.0748409722"><ele>108.77</ele><time>2012-11-01T06:56:07Z</time></trkpt><trkpt lat="41.3817192335" lon="2.0746733341"><ele>108.77</ele><time>2012-11-01T06:56:18Z</time></trkpt><trkpt lat="41.3820529170" lon="2.0745077077"><ele>108.77</ele><time>2012-11-01T06:56:28Z</time></trkpt><trkpt lat="41.3823017757" lon="2.0743789617"><ele>108.77</ele><time>2012-11-01T06:56:36Z</time></trkpt><trkpt lat="41.3826676458" lon="2.0741819032"><ele>109.25</ele><time>2012-11-01T06:56:48Z</time></trkpt><trkpt lat="41.3830005750" lon="2.0739934780"><ele>108.77</ele><time>2012-11-01T06:56:58Z</time></trkpt><trkpt lat="41.3832484279" lon="2.0738745388"><ele>107.81</ele><time>2012-11-01T06:57:05Z</time></trkpt><trkpt lat="41.3834728952" lon="2.0737433620"><ele>107.32</ele><time>2012-11-01T06:57:12Z</time></trkpt><trkpt lat="41.3836376835" lon="2.0737112593"><ele>107.32</ele><time>2012-11-01T06:57:17Z</time></trkpt><trkpt lat="41.3838158827" lon="2.0736702718"><ele>107.81</ele><time>2012-11-01T06:57:23Z</time></trkpt><trkpt lat="41.3839852810" lon="2.0736804977"><ele>108.29</ele><time>2012-11-01T06:57:29Z</time></trkpt><trkpt lat="41.3843222335" lon="2.0736711100"><ele>108.77</ele><time>2012-11-01T06:57:38Z</time></trkpt><trkpt lat="41.3845297694" lon="2.0736448746"><ele>109.25</ele><time>2012-11-01T06:57:45Z</time></trkpt><trkpt lat="41.3847642113" lon="2.0736465510"><ele>109.73</ele><time>2012-11-01T06:57:53Z</time></trkpt><trkpt lat="41.3849563245" lon="2.0736625604"><ele>110.21</ele><time>2012-11-01T06:58:00Z</time></trkpt><trkpt lat="41.3850782812" lon="2.0736472216"><ele>110.21</ele><time>2012-11-01T06:58:04Z</time></trkpt><trkpt lat="41.3852193486" lon="2.0736562740"><ele>110.21</ele><time>2012-11-01T06:58:08Z</time></trkpt><trkpt lat="41.3853967097" lon="2.0737107564"><ele>109.73</ele><time>2012-11-01T06:58:13Z</time></trkpt><trkpt lat="41.3857070915" lon="2.0736231655"><ele>110.21</ele><time>2012-11-01T06:58:22Z</time></trkpt><trkpt lat="41.3859738875" lon="2.0735511649"><ele>109.73</ele><time>2012-11-01T06:58:29Z</time></trkpt><trkpt lat="41.3860534318" lon="2.0735352393"><ele>109.73</ele><time>2012-11-01T06:58:31Z</time></trkpt><trkpt lat="41.3861822616" lon="2.0734974369"><ele>108.77</ele><time>2012-11-01T06:58:34Z</time></trkpt><trkpt lat="41.3865980878" lon="2.0733722951"><ele>106.84</ele><time>2012-11-01T06:58:43Z</time></trkpt><trkpt lat="41.3866411708" lon="2.0733608119"><ele>106.36</ele><time>2012-11-01T06:58:44Z</time></trkpt><trkpt lat="41.3868707512" lon="2.0734286215"><ele>105.40</ele><time>2012-11-01T06:58:49Z</time></trkpt><trkpt lat="41.3871579152" lon="2.0737724472"><ele>105.88</ele><time>2012-11-01T06:58:59Z</time></trkpt><trkpt lat="41.3873544708" lon="2.0740358066"><ele>106.36</ele><time>2012-11-01T06:59:07Z</time></trkpt><trkpt lat="41.3875470031" lon="2.0742826536"><ele>107.32</ele><time>2012-11-01T06:59:15Z</time></trkpt><trkpt lat="41.3877789304" lon="2.0745234657"><ele>107.81</ele><time>2012-11-01T06:59:24Z</time></trkpt><trkpt lat="41.3879797608" lon="2.0748018287"><ele>107.81</ele><time>2012-11-01T06:59:32Z</time></trkpt><trkpt lat="41.3881070819" lon="2.0751570538"><ele>106.36</ele><time>2012-11-01T06:59:39Z</time></trkpt><trkpt lat="41.3882328104" lon="2.0753833652"><ele>105.40</ele><time>2012-11-01T06:59:43Z</time></trkpt><trkpt lat="41.3883169647" lon="2.0754984487"><ele>104.44</ele><time>2012-11-01T06:59:45Z</time></trkpt><trkpt lat="41.3888447732" lon="2.0760151930"><ele>102.52</ele><time>2012-11-01T06:59:55Z</time></trkpt><trkpt lat="41.3889613654" lon="2.0761121716"><ele>102.04</ele><time>2012-11-01T06:59:57Z</time></trkpt><trkpt lat="41.3893131539" lon="2.0761333779"><ele>102.52</ele><time>2012-11-01T07:00:03Z</time></trkpt><trkpt lat="41.3894386310" lon="2.0760565996"><ele>103.00</ele><time>2012-11-01T07:00:06Z</time></trkpt><trkpt lat="41.3896687981" lon="2.0759025402"><ele>104.92</ele><time>2012-11-01T07:00:15Z</time></trkpt><trkpt lat="41.3898663595" lon="2.0758232474"><ele>105.88</ele><time>2012-11-01T07:00:23Z</time></trkpt><trkpt lat="41.3900857139" lon="2.0759495627"><ele>106.84</ele><time>2012-11-01T07:00:32Z</time></trkpt><trkpt lat="41.3902752288" lon="2.0761933085"><ele>108.29</ele><time>2012-11-01T07:00:41Z</time></trkpt><trkpt lat="41.3904843573" lon="2.0763862599"><ele>109.25</ele><time>2012-11-01T07:00:50Z</time></trkpt><trkpt lat="41.3907652348" lon="2.0766424946"><ele>110.69</ele><time>2012-11-01T07:01:02Z</time></trkpt><trkpt lat="41.3910228107" lon="2.0768585801"><ele>111.65</ele><time>2012-11-01T07:01:13Z</time></trkpt><trkpt lat="41.3912922051" lon="2.0770071074"><ele>112.61</ele><time>2012-11-01T07:01:24Z</time></trkpt><trkpt lat="41.3914753497" lon="2.0770942792"><ele>113.57</ele><time>2012-11-01T07:01:31Z</time></trkpt><trkpt lat="41.3916803710" lon="2.0771706384"><ele>114.05</ele><time>2012-11-01T07:01:39Z</time></trkpt><trkpt lat="41.3919454906" lon="2.0773138851"><ele>115.01</ele><time>2012-11-01T07:01:50Z</time></trkpt><trkpt lat="41.3921618275" lon="2.0775317308"><ele>116.46</ele><time>2012-11-01T07:02:00Z</time></trkpt><trkpt lat="41.3923947606" lon="2.0777660888"><ele>117.42</ele><time>2012-11-01T07:02:11Z</time></trkpt><trkpt lat="41.3926042244" lon="2.0779749658"><ele>118.86</ele><time>2012-11-01T07:02:21Z</time></trkpt><trkpt lat="41.3928017020" lon="2.0781673305"><ele>118.38</ele><time>2012-11-01T07:02:29Z</time></trkpt><trkpt lat="41.3930534106" lon="2.0784219727"><ele>117.90</ele><time>2012-11-01T07:02:38Z</time></trkpt><trkpt lat="41.3933872618" lon="2.0787582546"><ele>116.94</ele><time>2012-11-01T07:02:48Z</time></trkpt><trkpt lat="41.3934267405" lon="2.0787901897"><ele>116.46</ele><time>2012-11-01T07:02:49Z</time></trkpt><trkpt lat="41.3936476037" lon="2.0787771139"><ele>115.98</ele><time>2012-11-01T07:02:54Z</time></trkpt><trkpt lat="41.3938040938" lon="2.0787644573"><ele>116.46</ele><time>2012-11-01T07:02:58Z</time></trkpt><trkpt lat="41.3938526250" lon="2.0788284950"><ele>117.42</ele><time>2012-11-01T07:03:01Z</time></trkpt><trkpt lat="41.3940207660" lon="2.0791493542"><ele>118.38</ele><time>2012-11-01T07:03:13Z</time></trkpt><trkpt lat="41.3940982986" lon="2.0794031583"><ele>118.86</ele><time>2012-11-01T07:03:21Z</time></trkpt><trkpt lat="41.3942314871" lon="2.0796533581"><ele>119.34</ele><time>2012-11-01T07:03:30Z</time></trkpt><trkpt lat="41.3944156375" lon="2.0797598921"><ele>120.30</ele><time>2012-11-01T07:03:38Z</time></trkpt><trkpt lat="41.3946858700" lon="2.0797901507"><ele>121.26</ele><time>2012-11-01T07:03:49Z</time></trkpt><trkpt lat="41.3948685117" lon="2.0799380075"><ele>122.22</ele><time>2012-11-01T07:03:58Z</time></trkpt><trkpt lat="41.3949573599" lon="2.0801351499"><ele>123.19</ele><time>2012-11-01T07:04:05Z</time></trkpt><trkpt lat="41.3950902130" lon="2.0803811587"><ele>124.15</ele><time>2012-11-01T07:04:14Z</time></trkpt><trkpt lat="41.3952029496" lon="2.0806537382"><ele>125.59</ele><time>2012-11-01T07:04:24Z</time></trkpt><trkpt lat="41.3952310290" lon="2.0809331071"><ele>126.55</ele><time>2012-11-01T07:04:33Z</time></trkpt><trkpt lat="41.3952349685" lon="2.0812749211"><ele>127.99</ele><time>2012-11-01T07:04:44Z</time></trkpt><trkpt lat="41.3951948192" lon="2.0815062616"><ele>128.47</ele><time>2012-11-01T07:04:52Z</time></trkpt><trkpt lat="41.3951235730" lon="2.0817366801"><ele>130.40</ele><time>2012-11-01T07:05:01Z</time></trkpt><trkpt lat="41.3951086532" lon="2.0819739718"><ele>129.92</ele><time>2012-11-01T07:05:08Z</time></trkpt><trkpt lat="41.3951998483" lon="2.0822637342"><ele>128.95</ele><time>2012-11-01T07:05:15Z</time></trkpt><trkpt lat="41.3952125888" lon="2.0825014450"><ele>129.43</ele><time>2012-11-01T07:05:22Z</time></trkpt><trkpt lat="41.3952389918" lon="2.0827004313"><ele>131.36</ele><time>2012-11-01T07:05:30Z</time></trkpt><trkpt lat="41.3952483796" lon="2.0829366334"><ele>133.28</ele><time>2012-11-01T07:05:39Z</time></trkpt><trkpt lat="41.3952390756" lon="2.0831509586"><ele>134.72</ele><time>2012-11-01T07:05:47Z</time></trkpt><trkpt lat="41.3952301070" lon="2.0833676308"><ele>136.16</ele><time>2012-11-01T07:05:55Z</time></trkpt><trkpt lat="41.3952607848" lon="2.0836032461"><ele>137.13</ele><time>2012-11-01T07:06:04Z</time></trkpt><trkpt lat="41.3952903729" lon="2.0838765800"><ele>139.53</ele><time>2012-11-01T07:06:14Z</time></trkpt><trkpt lat="41.3952824101" lon="2.0840775780"><ele>142.41</ele><time>2012-11-01T07:06:22Z</time></trkpt><trkpt lat="41.3953123335" lon="2.0843319688"><ele>142.41</ele><time>2012-11-01T07:06:31Z</time></trkpt><trkpt lat="41.3953349646" lon="2.0846151095"><ele>143.37</ele><time>2012-11-01T07:06:41Z</time></trkpt><trkpt lat="41.3953173626" lon="2.0849158522"><ele>144.82</ele><time>2012-11-01T07:06:52Z</time></trkpt><trkpt lat="41.3952945638" lon="2.0851505455"><ele>146.26</ele><time>2012-11-01T07:07:01Z</time></trkpt><trkpt lat="41.3952707592" lon="2.0853667986"><ele>147.22</ele><time>2012-11-01T07:07:09Z</time></trkpt><trkpt lat="41.3952369802" lon="2.0855129790"><ele>147.22</ele><time>2012-11-01T07:07:14Z</time></trkpt><trkpt lat="41.3952179532" lon="2.0857057627"><ele>147.70</ele><time>2012-11-01T07:07:21Z</time></trkpt><trkpt lat="41.3952178694" lon="2.0860297233"><ele>149.14</ele><time>2012-11-01T07:07:32Z</time></trkpt><trkpt lat="41.3952516485" lon="2.0862692781"><ele>150.10</ele><time>2012-11-01T07:07:41Z</time></trkpt><trkpt lat="41.3953166083" lon="2.0864826813"><ele>151.54</ele><time>2012-11-01T07:07:50Z</time></trkpt><trkpt lat="41.3953868486" lon="2.0866880380"><ele>153.47</ele><time>2012-11-01T07:07:59Z</time></trkpt><trkpt lat="41.3954057079" lon="2.0869073085"><ele>155.87</ele><time>2012-11-01T07:08:07Z</time></trkpt><trkpt lat="41.3954246510" lon="2.0871085580"><ele>157.79</ele><time>2012-11-01T07:08:15Z</time></trkpt><trkpt lat="41.3954793848" lon="2.0872659702"><ele>159.72</ele><time>2012-11-01T07:08:22Z</time></trkpt><trkpt lat="41.3955678139" lon="2.0874385536"><ele>161.64</ele><time>2012-11-01T07:08:31Z</time></trkpt><trkpt lat="41.3955822308" lon="2.0874735899"><ele>161.64</ele><time>2012-11-01T07:08:33Z</time></trkpt><trkpt lat="41.3955914509" lon="2.0875709876"><ele>163.08</ele><time>2012-11-01T07:08:41Z</time></trkpt><trkpt lat="41.3956271578" lon="2.0875639468"><ele>163.56</ele><time>2012-11-01T07:08:48Z</time></trkpt><trkpt lat="41.3956329413" lon="2.0875032619"><ele>164.52</ele><time>2012-11-01T07:08:55Z</time></trkpt><trkpt lat="41.3955832366" lon="2.0873534773"><ele>164.04</ele><time>2012-11-01T07:09:03Z</time></trkpt><trkpt lat="41.3955669757" lon="2.0873169322"><ele>164.52</ele><time>2012-11-01T07:09:05Z</time></trkpt><trkpt lat="41.3956353720" lon="2.0871167723"><ele>165.00</ele><time>2012-11-01T07:09:14Z</time></trkpt><trkpt lat="41.3956993259" lon="2.0870217215"><ele>165.48</ele><time>2012-11-01T07:09:19Z</time></trkpt><trkpt lat="41.3956822269" lon="2.0868224837"><ele>166.45</ele><time>2012-11-01T07:09:27Z</time></trkpt><trkpt lat="41.3956655469" lon="2.0865993574"><ele>169.33</ele><time>2012-11-01T07:09:36Z</time></trkpt><trkpt lat="41.3956942130" lon="2.0863497443"><ele>170.29</ele><time>2012-11-01T07:09:44Z</time></trkpt><trkpt lat="41.3957278244" lon="2.0861348324"><ele>171.73</ele><time>2012-11-01T07:09:53Z</time></trkpt><trkpt lat="41.3957537245" lon="2.0859158132"><ele>172.69</ele><time>2012-11-01T07:10:02Z</time></trkpt><trkpt lat="41.3958403096" lon="2.0857107081"><ele>171.25</ele><time>2012-11-01T07:10:09Z</time></trkpt><trkpt lat="41.3959634397" lon="2.0856192615"><ele>171.73</ele><time>2012-11-01T07:10:14Z</time></trkpt><trkpt lat="41.3961097877" lon="2.0855542179"><ele>171.73</ele><time>2012-11-01T07:10:21Z</time></trkpt><trkpt lat="41.3962775934" lon="2.0855693053"><ele>171.73</ele><time>2012-11-01T07:10:28Z</time></trkpt><trkpt lat="41.3964287192" lon="2.0856746659"><ele>172.21</ele><time>2012-11-01T07:10:35Z</time></trkpt><trkpt lat="41.3965858798" lon="2.0858400408"><ele>172.69</ele><time>2012-11-01T07:10:44Z</time></trkpt><trkpt lat="41.3966965210" lon="2.0860517677"><ele>172.69</ele><time>2012-11-01T07:10:53Z</time></trkpt><trkpt lat="41.3968709484" lon="2.0861764066"><ele>173.17</ele><time>2012-11-01T07:11:01Z</time></trkpt><trkpt lat="41.3969930727" lon="2.0863043144"><ele>173.17</ele><time>2012-11-01T07:11:07Z</time></trkpt><trkpt lat="41.3971028756" lon="2.0865027979"><ele>173.66</ele><time>2012-11-01T07:11:15Z</time></trkpt><trkpt lat="41.3971367385" lon="2.0867000241"><ele>175.58</ele><time>2012-11-01T07:11:22Z</time></trkpt><trkpt lat="41.3972418476" lon="2.0868506469"><ele>177.98</ele><time>2012-11-01T07:11:29Z</time></trkpt><trkpt lat="41.3973452803" lon="2.0870218892"><ele>180.38</ele><time>2012-11-01T07:11:37Z</time></trkpt><trkpt lat="41.3973729406" lon="2.0870860107"><ele>181.35</ele><time>2012-11-01T07:11:40Z</time></trkpt><trkpt lat="41.3974355534" lon="2.0871775411"><ele>181.83</ele><time>2012-11-01T07:11:44Z</time></trkpt><trkpt lat="41.3975380640" lon="2.0873607695"><ele>182.31</ele><time>2012-11-01T07:11:52Z</time></trkpt><trkpt lat="41.3976370543" lon="2.0876697265"><ele>182.31</ele><time>2012-11-01T07:12:02Z</time></trkpt><trkpt lat="41.3976489566" lon="2.0879060123"><ele>182.79</ele><time>2012-11-01T07:12:09Z</time></trkpt><trkpt lat="41.3976372220" lon="2.0881707128"><ele>183.27</ele><time>2012-11-01T07:12:17Z</time></trkpt><trkpt lat="41.3977149222" lon="2.0883318968"><ele>181.83</ele><time>2012-11-01T07:12:22Z</time></trkpt><trkpt lat="41.3978512120" lon="2.0883725490"><ele>184.71</ele><time>2012-11-01T07:12:28Z</time></trkpt><trkpt lat="41.3980024215" lon="2.0884528477"><ele>187.59</ele><time>2012-11-01T07:12:35Z</time></trkpt><trkpt lat="41.3981526252" lon="2.0885474794"><ele>186.63</ele><time>2012-11-01T07:12:42Z</time></trkpt><trkpt lat="41.3982246257" lon="2.0885936636"><ele>186.15</ele><time>2012-11-01T07:12:44Z</time></trkpt><trkpt lat="41.3984127995" lon="2.0885992795"><ele>184.23</ele><time>2012-11-01T07:12:48Z</time></trkpt><trkpt lat="41.3986664359" lon="2.0885387622"><ele>180.38</ele><time>2012-11-01T07:12:53Z</time></trkpt><trkpt lat="41.3987616543" lon="2.0885247644"><ele>177.98</ele><time>2012-11-01T07:12:55Z</time></trkpt><trkpt lat="41.3989779074" lon="2.0885872096"><ele>173.66</ele><time>2012-11-01T07:12:59Z</time></trkpt><trkpt lat="41.3991083298" lon="2.0887152851"><ele>173.17</ele><time>2012-11-01T07:13:02Z</time></trkpt><trkpt lat="41.3992459606" lon="2.0888276864"><ele>171.73</ele><time>2012-11-01T07:13:05Z</time></trkpt><trkpt lat="41.3993645646" lon="2.0888870303"><ele>171.25</ele><time>2012-11-01T07:13:07Z</time></trkpt><trkpt lat="41.3995851763" lon="2.0888965018"><ele>170.77</ele><time>2012-11-01T07:13:11Z</time></trkpt><trkpt lat="41.3997175265" lon="2.0888322126"><ele>167.89</ele><time>2012-11-01T07:13:15Z</time></trkpt><trkpt lat="41.3998970669" lon="2.0889417641"><ele>165.00</ele><time>2012-11-01T07:13:19Z</time></trkpt><trkpt lat="41.4000872523" lon="2.0890601166"><ele>165.48</ele><time>2012-11-01T07:13:23Z</time></trkpt><trkpt lat="41.4001246355" lon="2.0891170297"><ele>165.96</ele><time>2012-11-01T07:13:25Z</time></trkpt><trkpt lat="41.4001483563" lon="2.0891474560"><ele>165.96</ele><time>2012-11-01T07:13:28Z</time></trkpt><trkpt lat="41.4001888409" lon="2.0891700033"><ele>166.45</ele><time>2012-11-01T07:13:35Z</time></trkpt><trkpt lat="41.4002145734" lon="2.0891876053"><ele>166.93</ele><time>2012-11-01T07:13:43Z</time></trkpt><trkpt lat="41.4002476819" lon="2.0891686622"><ele>166.45</ele><time>2012-11-01T07:13:51Z</time></trkpt><trkpt lat="41.4002498612" lon="2.0891135931"><ele>164.52</ele><time>2012-11-01T07:13:59Z</time></trkpt><trkpt lat="41.4002517052" lon="2.0890920516"><ele>164.04</ele><time>2012-11-01T07:14:01Z</time></trkpt><trkpt lat="41.4002652839" lon="2.0890392456"><ele>163.08</ele><time>2012-11-01T07:14:05Z</time></trkpt><trkpt lat="41.4002487715" lon="2.0889514871"><ele>164.52</ele><time>2012-11-01T07:14:14Z</time></trkpt><trkpt lat="41.4002227876" lon="2.0888863597"><ele>166.93</ele><time>2012-11-01T07:14:23Z</time></trkpt><trkpt lat="41.4002375398" lon="2.0888689253"><ele>167.41</ele><time>2012-11-01T07:14:30Z</time></trkpt><trkpt lat="41.4002462570" lon="2.0888765529"><ele>167.89</ele><time>2012-11-01T07:14:34Z</time></trkpt><trkpt lat="41.4003012422" lon="2.0889002737"><ele>168.85</ele><time>2012-11-01T07:14:39Z</time></trkpt><trkpt lat="41.4003105462" lon="2.0888041332"><ele>170.29</ele><time>2012-11-01T07:14:46Z</time></trkpt><trkpt lat="41.4003006555" lon="2.0887856930"><ele>170.29</ele><time>2012-11-01T07:14:47Z</time></trkpt><trkpt lat="41.4002192672" lon="2.0886221621"><ele>170.77</ele><time>2012-11-01T07:14:56Z</time></trkpt><trkpt lat="41.4001249708" lon="2.0884386823"><ele>172.69</ele><time>2012-11-01T07:15:08Z</time></trkpt><trkpt lat="41.4000425767" lon="2.0882707927"><ele>174.62</ele><time>2012-11-01T07:15:18Z</time></trkpt><trkpt lat="41.4000244718" lon="2.0882322360"><ele>175.10</ele><time>2012-11-01T07:15:20Z</time></trkpt><trkpt lat="41.3999804668" lon="2.0880517736"><ele>175.58</ele><time>2012-11-01T07:15:28Z</time></trkpt><trkpt lat="41.3999148365" lon="2.0878180023"><ele>175.58</ele><time>2012-11-01T07:15:37Z</time></trkpt><trkpt lat="41.3998335321" lon="2.0875159185"><ele>174.14</ele><time>2012-11-01T07:15:45Z</time></trkpt><trkpt lat="41.3998386450" lon="2.0873362944"><ele>172.69</ele><time>2012-11-01T07:15:49Z</time></trkpt><trkpt lat="41.3998901099" lon="2.0872997493"><ele>171.73</ele><time>2012-11-01T07:15:51Z</time></trkpt><trkpt lat="41.3999652956" lon="2.0873305947"><ele>170.29</ele><time>2012-11-01T07:15:53Z</time></trkpt><trkpt lat="41.4000530541" lon="2.0873922016"><ele>169.81</ele><time>2012-11-01T07:15:55Z</time></trkpt><trkpt lat="41.4000984002" lon="2.0874202810"><ele>169.81</ele><time>2012-11-01T07:15:56Z</time></trkpt><trkpt lat="41.4002319239" lon="2.0874755178"><ele>170.29</ele><time>2012-11-01T07:15:59Z</time></trkpt><trkpt lat="41.4004959539" lon="2.0875301678"><ele>170.29</ele><time>2012-11-01T07:16:07Z</time></trkpt><trkpt lat="41.4006161503" lon="2.0875298325"><ele>171.73</ele><time>2012-11-01T07:16:14Z</time></trkpt><trkpt lat="41.4007253665" lon="2.0875989832"><ele>173.17</ele><time>2012-11-01T07:16:21Z</time></trkpt><trkpt lat="41.4008816052" lon="2.0877121389"><ele>173.66</ele><time>2012-11-01T07:16:29Z</time></trkpt><trkpt lat="41.4010432083" lon="2.0876895078"><ele>173.66</ele><time>2012-11-01T07:16:37Z</time></trkpt><trkpt lat="41.4011975192" lon="2.0876773540"><ele>175.10</ele><time>2012-11-01T07:16:46Z</time></trkpt><trkpt lat="41.4013859443" lon="2.0877236221"><ele>176.54</ele><time>2012-11-01T07:16:56Z</time></trkpt><trkpt lat="41.4015466254" lon="2.0878056809"><ele>177.50</ele><time>2012-11-01T07:17:05Z</time></trkpt><trkpt lat="41.4016961586" lon="2.0878411364"><ele>178.46</ele><time>2012-11-01T07:17:13Z</time></trkpt><trkpt lat="41.4019028563" lon="2.0878326707"><ele>180.38</ele><time>2012-11-01T07:17:24Z</time></trkpt><trkpt lat="41.4020712487" lon="2.0878031664"><ele>182.31</ele><time>2012-11-01T07:17:33Z</time></trkpt><trkpt lat="41.4022512920" lon="2.0877751708"><ele>182.79</ele><time>2012-11-01T07:17:41Z</time></trkpt><trkpt lat="41.4024346042" lon="2.0877027512"><ele>183.27</ele><time>2012-11-01T07:17:50Z</time></trkpt><trkpt lat="41.4025952015" lon="2.0876090415"><ele>184.23</ele><time>2012-11-01T07:17:59Z</time></trkpt><trkpt lat="41.4027537871" lon="2.0874793734"><ele>186.15</ele><time>2012-11-01T07:18:09Z</time></trkpt><trkpt lat="41.4028987940" lon="2.0873502921"><ele>188.08</ele><time>2012-11-01T07:18:19Z</time></trkpt><trkpt lat="41.4030272886" lon="2.0872590132"><ele>190.00</ele><time>2012-11-01T07:18:28Z</time></trkpt><trkpt lat="41.4031570405" lon="2.0872135833"><ele>191.92</ele><time>2012-11-01T07:18:36Z</time></trkpt><trkpt lat="41.4032942522" lon="2.0872331969"><ele>193.36</ele><time>2012-11-01T07:18:45Z</time></trkpt><trkpt lat="41.4034537598" lon="2.0873003360"><ele>194.80</ele><time>2012-11-01T07:18:55Z</time></trkpt><trkpt lat="41.4035794046" lon="2.0873649605"><ele>196.73</ele><time>2012-11-01T07:19:04Z</time></trkpt><trkpt lat="41.4036808256" lon="2.0874556527"><ele>197.69</ele><time>2012-11-01T07:19:12Z</time></trkpt><trkpt lat="41.4038017765" lon="2.0875693113"><ele>199.13</ele><time>2012-11-01T07:19:21Z</time></trkpt><trkpt lat="41.4038686641" lon="2.0876524597"><ele>200.57</ele><time>2012-11-01T07:19:28Z</time></trkpt><trkpt lat="41.4039516449" lon="2.0877368655"><ele>202.49</ele><time>2012-11-01T07:19:36Z</time></trkpt><trkpt lat="41.4039618708" lon="2.0877413917"><ele>202.49</ele><time>2012-11-01T07:19:37Z</time></trkpt><trkpt lat="41.4040375594" lon="2.0877414756"><ele>203.94</ele><time>2012-11-01T07:19:43Z</time></trkpt><trkpt lat="41.4041817281" lon="2.0876682177"><ele>206.34</ele><time>2012-11-01T07:19:54Z</time></trkpt><trkpt lat="41.4042859990" lon="2.0875384659"><ele>208.26</ele><time>2012-11-01T07:20:04Z</time></trkpt><trkpt lat="41.4043379668" lon="2.0875395555"><ele>209.22</ele><time>2012-11-01T07:20:10Z</time></trkpt><trkpt lat="41.4043957181" lon="2.0876265597"><ele>210.19</ele><time>2012-11-01T07:20:17Z</time></trkpt><trkpt lat="41.4044613484" lon="2.0878040045"><ele>210.67</ele><time>2012-11-01T07:20:28Z</time></trkpt><trkpt lat="41.4045706484" lon="2.0878926013"><ele>211.15</ele><time>2012-11-01T07:20:38Z</time></trkpt><trkpt lat="41.4045986440" lon="2.0878968760"><ele>211.63</ele><time>2012-11-01T07:20:40Z</time></trkpt><trkpt lat="41.4046941977" lon="2.0879169088"><ele>214.03</ele><time>2012-11-01T07:20:47Z</time></trkpt><trkpt lat="41.4048097841" lon="2.0880192518"><ele>214.51</ele><time>2012-11-01T07:20:55Z</time></trkpt><trkpt lat="41.4049202576" lon="2.0881399512"><ele>214.51</ele><time>2012-11-01T07:21:02Z</time></trkpt><trkpt lat="41.4050075971" lon="2.0882509276"><ele>215.95</ele><time>2012-11-01T07:21:10Z</time></trkpt><trkpt lat="41.4051158912" lon="2.0882876404"><ele>216.43</ele><time>2012-11-01T07:21:18Z</time></trkpt><trkpt lat="41.4051838685" lon="2.0883878879"><ele>217.40</ele><time>2012-11-01T07:21:25Z</time></trkpt><trkpt lat="41.4052199945" lon="2.0884921588"><ele>219.32</ele><time>2012-11-01T07:21:31Z</time></trkpt><trkpt lat="41.4052852057" lon="2.0886034705"><ele>220.28</ele><time>2012-11-01T07:21:39Z</time></trkpt><trkpt lat="41.4053033944" lon="2.0886403508"><ele>220.28</ele><time>2012-11-01T07:21:44Z</time></trkpt><trkpt lat="41.4053489082" lon="2.0887610503"><ele>219.80</ele><time>2012-11-01T07:21:52Z</time></trkpt><trkpt lat="41.4054236747" lon="2.0888736192"><ele>218.84</ele><time>2012-11-01T07:21:59Z</time></trkpt><trkpt lat="41.4054309670" lon="2.0889197197"><ele>218.36</ele><time>2012-11-01T07:22:02Z</time></trkpt><trkpt lat="41.4053878002" lon="2.0889979228"><ele>219.80</ele><time>2012-11-01T07:22:07Z</time></trkpt><trkpt lat="41.4053679351" lon="2.0890121721"><ele>220.76</ele><time>2012-11-01T07:22:14Z</time></trkpt><trkpt lat="41.4053387661" lon="2.0890245773"><ele>221.24</ele><time>2012-11-01T07:22:21Z</time></trkpt><trkpt lat="41.4052997902" lon="2.0890299417"><ele>222.20</ele><time>2012-11-01T07:22:27Z</time></trkpt><trkpt lat="41.4052211680" lon="2.0890496392"><ele>223.64</ele><time>2012-11-01T07:22:35Z</time></trkpt><trkpt lat="41.4051319845" lon="2.0890678279"><ele>226.05</ele><time>2012-11-01T07:22:42Z</time></trkpt><trkpt lat="41.4051095210" lon="2.0890623797"><ele>227.01</ele><time>2012-11-01T07:22:50Z</time></trkpt><trkpt lat="41.4050718863" lon="2.0890618768"><ele>227.97</ele><time>2012-11-01T07:22:58Z</time></trkpt><trkpt lat="41.4050257858" lon="2.0890550874"><ele>228.45</ele><time>2012-11-01T07:23:06Z</time></trkpt><trkpt lat="41.4049406257" lon="2.0890645590"><ele>229.89</ele><time>2012-11-01T07:23:14Z</time></trkpt><trkpt lat="41.4048547111" lon="2.0890845917"><ele>230.85</ele><time>2012-11-01T07:23:22Z</time></trkpt><trkpt lat="41.4047555532" lon="2.0890689176"><ele>231.33</ele><time>2012-11-01T07:23:29Z</time></trkpt><trkpt lat="41.4046464209" lon="2.0890613738"><ele>230.85</ele><time>2012-11-01T07:23:34Z</time></trkpt><trkpt lat="41.4045240451" lon="2.0890464541"><ele>231.33</ele><time>2012-11-01T07:23:41Z</time></trkpt><trkpt lat="41.4043870009" lon="2.0890394133"><ele>231.81</ele><time>2012-11-01T07:23:48Z</time></trkpt><trkpt lat="41.4042977337" lon="2.0890011918"><ele>232.30</ele><time>2012-11-01T07:23:54Z</time></trkpt><trkpt lat="41.4042083826" lon="2.0889545884"><ele>233.74</ele><time>2012-11-01T07:24:00Z</time></trkpt><trkpt lat="41.4040849172" lon="2.0889360644"><ele>234.22</ele><time>2012-11-01T07:24:06Z</time></trkpt><trkpt lat="41.4039163571" lon="2.0889266767"><ele>235.18</ele><time>2012-11-01T07:24:14Z</time></trkpt><trkpt lat="41.4037939813" lon="2.0889669936"><ele>236.62</ele><time>2012-11-01T07:24:21Z</time></trkpt><trkpt lat="41.4036565181" lon="2.0890400838"><ele>236.14</ele><time>2012-11-01T07:24:28Z</time></trkpt><trkpt lat="41.4035487268" lon="2.0891450252"><ele>235.18</ele><time>2012-11-01T07:24:34Z</time></trkpt><trkpt lat="41.4034472220" lon="2.0892493799"><ele>233.26</ele><time>2012-11-01T07:24:39Z</time></trkpt><trkpt lat="41.4034268539" lon="2.0892774593"><ele>233.26</ele><time>2012-11-01T07:24:40Z</time></trkpt><trkpt lat="41.4034066536" lon="2.0893041138"><ele>232.30</ele><time>2012-11-01T07:24:41Z</time></trkpt><trkpt lat="41.4033812564" lon="2.0894344524"><ele>232.30</ele><time>2012-11-01T07:24:45Z</time></trkpt><trkpt lat="41.4034375828" lon="2.0896280743"><ele>233.26</ele><time>2012-11-01T07:24:55Z</time></trkpt><trkpt lat="41.4035219047" lon="2.0897941198"><ele>232.78</ele><time>2012-11-01T07:25:01Z</time></trkpt><trkpt lat="41.4035403449" lon="2.0898264740"><ele>232.78</ele><time>2012-11-01T07:25:02Z</time></trkpt><trkpt lat="41.4036238287" lon="2.0899739955"><ele>234.70</ele><time>2012-11-01T07:25:11Z</time></trkpt><trkpt lat="41.4036822505" lon="2.0900561381"><ele>235.18</ele><time>2012-11-01T07:25:17Z</time></trkpt><trkpt lat="41.4038075600" lon="2.0902229380"><ele>236.62</ele><time>2012-11-01T07:25:28Z</time></trkpt><trkpt lat="41.4039065503" lon="2.0903381053"><ele>238.06</ele><time>2012-11-01T07:25:36Z</time></trkpt><trkpt lat="41.4040406607" lon="2.0904458128"><ele>239.02</ele><time>2012-11-01T07:25:45Z</time></trkpt><trkpt lat="41.4041305985" lon="2.0905044861"><ele>239.99</ele><time>2012-11-01T07:25:51Z</time></trkpt><trkpt lat="41.4041844942" lon="2.0905510057"><ele>240.47</ele><time>2012-11-01T07:25:55Z</time></trkpt><trkpt lat="41.4042969793" lon="2.0906384289"><ele>241.43</ele><time>2012-11-01T07:26:04Z</time></trkpt><trkpt lat="41.4043850731" lon="2.0907125250"><ele>242.39</ele><time>2012-11-01T07:26:11Z</time></trkpt><trkpt lat="41.4044509549" lon="2.0908755530"><ele>243.83</ele><time>2012-11-01T07:26:21Z</time></trkpt><trkpt lat="41.4044715744" lon="2.0910462085"><ele>245.27</ele><time>2012-11-01T07:26:29Z</time></trkpt><trkpt lat="41.4045084547" lon="2.0911587775"><ele>245.75</ele><time>2012-11-01T07:26:35Z</time></trkpt><trkpt lat="41.4045869093" lon="2.0912726037"><ele>247.20</ele><time>2012-11-01T07:26:43Z</time></trkpt><trkpt lat="41.4046573173" lon="2.0913302712"><ele>248.16</ele><time>2012-11-01T07:26:50Z</time></trkpt><trkpt lat="41.4047432318" lon="2.0913864300"><ele>249.12</ele><time>2012-11-01T07:26:58Z</time></trkpt><trkpt lat="41.4047874045" lon="2.0914252382"><ele>250.08</ele><time>2012-11-01T07:27:02Z</time></trkpt><trkpt lat="41.4048619196" lon="2.0914657228"><ele>251.52</ele><time>2012-11-01T07:27:08Z</time></trkpt><trkpt lat="41.4049205091" lon="2.0915181097"><ele>252.96</ele><time>2012-11-01T07:27:13Z</time></trkpt><trkpt lat="41.4049863908" lon="2.0915798005"><ele>253.93</ele><time>2012-11-01T07:27:21Z</time></trkpt><trkpt lat="41.4050165657" lon="2.0916292537"><ele>254.89</ele><time>2012-11-01T07:27:26Z</time></trkpt><trkpt lat="41.4050750714" lon="2.0917226281"><ele>255.85</ele><time>2012-11-01T07:27:35Z</time></trkpt><trkpt lat="41.4051080123" lon="2.0918067824"><ele>256.81</ele><time>2012-11-01T07:27:43Z</time></trkpt><trkpt lat="41.4051436353" lon="2.0918582473"><ele>257.77</ele><time>2012-11-01T07:27:50Z</time></trkpt><trkpt lat="41.4051981177" lon="2.0919229556"><ele>259.21</ele><time>2012-11-01T07:27:59Z</time></trkpt><trkpt lat="41.4052080922" lon="2.0919675473"><ele>260.65</ele><time>2012-11-01T07:28:03Z</time></trkpt><trkpt lat="41.4052090142" lon="2.0920071099"><ele>261.14</ele><time>2012-11-01T07:28:06Z</time></trkpt><trkpt lat="41.4051409531" lon="2.0921174996"><ele>262.10</ele><time>2012-11-01T07:28:16Z</time></trkpt><trkpt lat="41.4050790947" lon="2.0921776816"><ele>262.58</ele><time>2012-11-01T07:28:24Z</time></trkpt><trkpt lat="41.4050673600" lon="2.0921838842"><ele>262.58</ele><time>2012-11-01T07:28:25Z</time></trkpt><trkpt lat="41.4049899951" lon="2.0922407974"><ele>263.54</ele><time>2012-11-01T07:28:33Z</time></trkpt><trkpt lat="41.4049507678" lon="2.0923270471"><ele>263.54</ele><time>2012-11-01T07:28:40Z</time></trkpt><trkpt lat="41.4048800245" lon="2.0924324077"><ele>264.02</ele><time>2012-11-01T07:28:48Z</time></trkpt><trkpt lat="41.4048274700" lon="2.0925024804"><ele>264.98</ele><time>2012-11-01T07:28:55Z</time></trkpt><trkpt lat="41.4047083631" lon="2.0925749000"><ele>265.94</ele><time>2012-11-01T07:29:05Z</time></trkpt><trkpt lat="41.4046204370" lon="2.0926454756"><ele>266.90</ele><time>2012-11-01T07:29:13Z</time></trkpt><trkpt lat="41.4045909327" lon="2.0927452203"><ele>267.38</ele><time>2012-11-01T07:29:19Z</time></trkpt><trkpt lat="41.4046653640" lon="2.0928952564"><ele>268.83</ele><time>2012-11-01T07:29:29Z</time></trkpt><trkpt lat="41.4046813734" lon="2.0929415245"><ele>269.31</ele><time>2012-11-01T07:29:32Z</time></trkpt><trkpt lat="41.4046865702" lon="2.0930125192"><ele>269.79</ele><time>2012-11-01T07:29:36Z</time></trkpt><trkpt lat="41.4046720695" lon="2.0931732003"><ele>271.23</ele><time>2012-11-01T07:29:45Z</time></trkpt><trkpt lat="41.4046658669" lon="2.0931933168"><ele>271.23</ele><time>2012-11-01T07:29:46Z</time></trkpt><trkpt lat="41.4046829659" lon="2.0933256671"><ele>273.15</ele><time>2012-11-01T07:29:54Z</time></trkpt><trkpt lat="41.4046921860" lon="2.0933352225"><ele>273.15</ele><time>2012-11-01T07:29:55Z</time></trkpt><trkpt lat="41.4047194272" lon="2.0934102405"><ele>274.11</ele><time>2012-11-01T07:30:00Z</time></trkpt><trkpt lat="41.4047645219" lon="2.0934613701"><ele>274.59</ele><time>2012-11-01T07:30:08Z</time></trkpt><trkpt lat="41.4047661144" lon="2.0934584364"><ele>274.59</ele><time>2012-11-01T07:30:20Z</time></trkpt><trkpt lat="41.4047728200" lon="2.0934721828"><ele>274.59</ele><time>2012-11-01T07:30:26Z</time></trkpt><trkpt lat="41.4047410525" lon="2.0933981705"><ele>274.11</ele><time>2012-11-01T07:30:32Z</time></trkpt><trkpt lat="41.4047423098" lon="2.0933502261"><ele>274.11</ele><time>2012-11-01T07:30:36Z</time></trkpt><trkpt lat="41.4047559723" lon="2.0933267567"><ele>274.59</ele><time>2012-11-01T07:30:38Z</time></trkpt><trkpt lat="41.4047850575" lon="2.0932596177"><ele>275.07</ele><time>2012-11-01T07:30:42Z</time></trkpt><trkpt lat="41.4048712235" lon="2.0930911414"><ele>276.52</ele><time>2012-11-01T07:30:53Z</time></trkpt><trkpt lat="41.4049720578" lon="2.0929179713"><ele>277.00</ele><time>2012-11-01T07:31:03Z</time></trkpt><trkpt lat="41.4050793462" lon="2.0927636605"><ele>277.48</ele><time>2012-11-01T07:31:13Z</time></trkpt><trkpt lat="41.4051574655" lon="2.0927282888"><ele>277.96</ele><time>2012-11-01T07:31:20Z</time></trkpt><trkpt lat="41.4052616525" lon="2.0926871337"><ele>278.44</ele><time>2012-11-01T07:31:30Z</time></trkpt><trkpt lat="41.4052945934" lon="2.0926788356"><ele>278.44</ele><time>2012-11-01T07:31:37Z</time></trkpt><trkpt lat="41.4052997902" lon="2.0926748123"><ele>278.92</ele><time>2012-11-01T07:31:50Z</time></trkpt><trkpt lat="41.4053205773" lon="2.0926779136"><ele>278.92</ele><time>2012-11-01T07:32:08Z</time></trkpt><trkpt lat="41.4053369220" lon="2.0926591381"><ele>279.40</ele><time>2012-11-01T07:32:18Z</time></trkpt><trkpt lat="41.4053948410" lon="2.0926365070"><ele>280.36</ele><time>2012-11-01T07:32:25Z</time></trkpt><trkpt lat="41.4055183902" lon="2.0925894007"><ele>281.80</ele><time>2012-11-01T07:32:34Z</time></trkpt><trkpt lat="41.4055809192" lon="2.0924002212"><ele>280.84</ele><time>2012-11-01T07:32:43Z</time></trkpt><trkpt lat="41.4055913966" lon="2.0921977144"><ele>280.36</ele><time>2012-11-01T07:32:49Z</time></trkpt><trkpt lat="41.4055991080" lon="2.0919660386"><ele>280.36</ele><time>2012-11-01T07:32:56Z</time></trkpt><trkpt lat="41.4055810031" lon="2.0917153358"><ele>280.84</ele><time>2012-11-01T07:33:04Z</time></trkpt><trkpt lat="41.4055704419" lon="2.0914740209"><ele>280.36</ele><time>2012-11-01T07:33:12Z</time></trkpt><trkpt lat="41.4056441188" lon="2.0914116595"><ele>281.32</ele><time>2012-11-01T07:33:18Z</time></trkpt><trkpt lat="41.4056567755" lon="2.0914222207"><ele>281.32</ele><time>2012-11-01T07:33:19Z</time></trkpt><trkpt lat="41.4057908859" lon="2.0915490389"><ele>283.25</ele><time>2012-11-01T07:33:30Z</time></trkpt><trkpt lat="41.4058992639" lon="2.0915934630"><ele>283.73</ele><time>2012-11-01T07:33:38Z</time></trkpt><trkpt lat="41.4059090707" lon="2.0915949717"><ele>283.73</ele><time>2012-11-01T07:33:39Z</time></trkpt><trkpt lat="41.4059308637" lon="2.0916138310"><ele>284.21</ele><time>2012-11-01T07:33:41Z</time></trkpt><trkpt lat="41.4060606994" lon="2.0916772820"><ele>285.17</ele><time>2012-11-01T07:33:51Z</time></trkpt><trkpt lat="41.4061749447" lon="2.0917556528"><ele>286.13</ele><time>2012-11-01T07:34:00Z</time></trkpt><trkpt lat="41.4063150063" lon="2.0918618515"><ele>286.61</ele><time>2012-11-01T07:34:08Z</time></trkpt><trkpt lat="41.4065304212" lon="2.0919771865"><ele>285.65</ele><time>2012-11-01T07:34:16Z</time></trkpt><trkpt lat="41.4067156613" lon="2.0920376200"><ele>286.61</ele><time>2012-11-01T07:34:24Z</time></trkpt><trkpt lat="41.4068749174" lon="2.0921223611"><ele>287.09</ele><time>2012-11-01T07:34:32Z</time></trkpt><trkpt lat="41.4070134703" lon="2.0921832975"><ele>288.05</ele><time>2012-11-01T07:34:40Z</time></trkpt><trkpt lat="41.4071543701" lon="2.0922938548"><ele>289.49</ele><time>2012-11-01T07:34:48Z</time></trkpt><trkpt lat="41.4072194137" lon="2.0923861396"><ele>290.46</ele><time>2012-11-01T07:34:54Z</time></trkpt><trkpt lat="41.4073049929" lon="2.0925133768"><ele>291.90</ele><time>2012-11-01T07:35:01Z</time></trkpt><trkpt lat="41.4073767420" lon="2.0925923344"><ele>293.34</ele><time>2012-11-01T07:35:07Z</time></trkpt><trkpt lat="41.4074427914" lon="2.0926262811"><ele>294.78</ele><time>2012-11-01T07:35:12Z</time></trkpt><trkpt lat="41.4075581264" lon="2.0925405342"><ele>295.74</ele><time>2012-11-01T07:35:21Z</time></trkpt><trkpt lat="41.4076499082" lon="2.0923982933"><ele>297.67</ele><time>2012-11-01T07:35:30Z</time></trkpt><trkpt lat="41.4076854475" lon="2.0922446530"><ele>299.59</ele><time>2012-11-01T07:35:38Z</time></trkpt><trkpt lat="41.4077042229" lon="2.0920919348"><ele>301.99</ele><time>2012-11-01T07:35:46Z</time></trkpt><trkpt lat="41.4077290334" lon="2.0918752626"><ele>302.95</ele><time>2012-11-01T07:35:56Z</time></trkpt><trkpt lat="41.4077622257" lon="2.0916744322"><ele>304.88</ele><time>2012-11-01T07:36:06Z</time></trkpt><trkpt lat="41.4077877067" lon="2.0914781280"><ele>306.80</ele><time>2012-11-01T07:36:16Z</time></trkpt><trkpt lat="41.4078163728" lon="2.0913069695"><ele>308.72</ele><time>2012-11-01T07:36:25Z</time></trkpt><trkpt lat="41.4078728668" lon="2.0911565982"><ele>310.64</ele><time>2012-11-01T07:36:33Z</time></trkpt><trkpt lat="41.4079127647" lon="2.0910934824"><ele>311.60</ele><time>2012-11-01T07:36:37Z</time></trkpt><trkpt lat="41.4080328774" lon="2.0911287703"><ele>313.53</ele><time>2012-11-01T07:36:45Z</time></trkpt><trkpt lat="41.4080840908" lon="2.0911674108"><ele>314.97</ele><time>2012-11-01T07:36:49Z</time></trkpt><trkpt lat="41.4081234857" lon="2.0912962407"><ele>317.37</ele><time>2012-11-01T07:36:57Z</time></trkpt><trkpt lat="41.4081345499" lon="2.0913029462"><ele>317.85</ele><time>2012-11-01T07:37:03Z</time></trkpt><trkpt lat="41.4081425965" lon="2.0913039520"><ele>317.85</ele><time>2012-11-01T07:37:05Z</time></trkpt><trkpt lat="41.4081643056" lon="2.0913236495"><ele>318.81</ele><time>2012-11-01T07:37:08Z</time></trkpt><trkpt lat="41.4082498010" lon="2.0913847536"><ele>318.33</ele><time>2012-11-01T07:37:15Z</time></trkpt><trkpt lat="41.4082851727" lon="2.0914024394"><ele>318.33</ele><time>2012-11-01T07:37:18Z</time></trkpt><trkpt lat="41.4083285909" lon="2.0913799759"><ele>318.33</ele><time>2012-11-01T07:37:22Z</time></trkpt><trkpt lat="41.4083906170" lon="2.0912514813"><ele>318.33</ele><time>2012-11-01T07:37:31Z</time></trkpt><trkpt lat="41.4084134996" lon="2.0910557639"><ele>317.85</ele><time>2012-11-01T07:37:41Z</time></trkpt><trkpt lat="41.4084204566" lon="2.0908876229"><ele>317.85</ele><time>2012-11-01T07:37:50Z</time></trkpt><trkpt lat="41.4084476139" lon="2.0907923207"><ele>317.85</ele><time>2012-11-01T07:37:56Z</time></trkpt><trkpt lat="41.4085018449" lon="2.0906422008"><ele>317.85</ele><time>2012-11-01T07:38:04Z</time></trkpt><trkpt lat="41.4085293375" lon="2.0906023029"><ele>317.85</ele><time>2012-11-01T07:38:06Z</time></trkpt><trkpt lat="41.4085493702" lon="2.0904696174"><ele>317.37</ele><time>2012-11-01T07:38:10Z</time></trkpt><trkpt lat="41.4086433314" lon="2.0901601575"><ele>315.45</ele><time>2012-11-01T07:38:17Z</time></trkpt><trkpt lat="41.4086942933" lon="2.0900011528"><ele>314.49</ele><time>2012-11-01T07:38:20Z</time></trkpt><trkpt lat="41.4087411482" lon="2.0898983069"><ele>314.49</ele><time>2012-11-01T07:38:22Z</time></trkpt><trkpt lat="41.4088440780" lon="2.0897461753"><ele>313.53</ele><time>2012-11-01T07:38:25Z</time></trkpt><trkpt lat="41.4089595806" lon="2.0895630307"><ele>312.09</ele><time>2012-11-01T07:38:28Z</time></trkpt><trkpt lat="41.4091564715" lon="2.0893348753"><ele>311.12</ele><time>2012-11-01T07:38:32Z</time></trkpt><trkpt lat="41.4093009755" lon="2.0891504735"><ele>310.16</ele><time>2012-11-01T07:38:35Z</time></trkpt><trkpt lat="41.4094814379" lon="2.0891369786"><ele>309.68</ele><time>2012-11-01T07:38:39Z</time></trkpt><trkpt lat="41.4094887301" lon="2.0892399084"><ele>309.68</ele><time>2012-11-01T07:38:41Z</time></trkpt><trkpt lat="41.4094107784" lon="2.0895914454"><ele>309.68</ele><time>2012-11-01T07:38:50Z</time></trkpt><trkpt lat="41.4093367662" lon="2.0897734165"><ele>310.16</ele><time>2012-11-01T07:38:57Z</time></trkpt><trkpt lat="41.4092565514" lon="2.0899563096"><ele>311.12</ele><time>2012-11-01T07:39:04Z</time></trkpt><trkpt lat="41.4092091937" lon="2.0902022347"><ele>312.09</ele><time>2012-11-01T07:39:13Z</time></trkpt><trkpt lat="41.4092465769" lon="2.0904846210"><ele>312.57</ele><time>2012-11-01T07:39:21Z</time></trkpt><trkpt lat="41.4092756622" lon="2.0907744672"><ele>312.57</ele><time>2012-11-01T07:39:30Z</time></trkpt><trkpt lat="41.4093294740" lon="2.0911053848"><ele>312.57</ele><time>2012-11-01T07:39:40Z</time></trkpt><trkpt lat="41.4093722217" lon="2.0914398227"><ele>313.05</ele><time>2012-11-01T07:39:51Z</time></trkpt><trkpt lat="41.4094598126" lon="2.0916601829"><ele>314.49</ele><time>2012-11-01T07:40:00Z</time></trkpt><trkpt lat="41.4096059091" lon="2.0918702334"><ele>314.49</ele><time>2012-11-01T07:40:09Z</time></trkpt><trkpt lat="41.4097067434" lon="2.0920095406"><ele>314.01</ele><time>2012-11-01T07:40:15Z</time></trkpt><trkpt lat="41.4098708611" lon="2.0922442339"><ele>314.01</ele><time>2012-11-01T07:40:25Z</time></trkpt><trkpt lat="41.4100499824" lon="2.0925179031"><ele>314.97</ele><time>2012-11-01T07:40:36Z</time></trkpt><trkpt lat="41.4102431014" lon="2.0927738026"><ele>315.93</ele><time>2012-11-01T07:40:48Z</time></trkpt><trkpt lat="41.4104451053" lon="2.0928219147"><ele>316.89</ele><time>2012-11-01T07:40:58Z</time></trkpt><trkpt lat="41.4106756076" lon="2.0928960945"><ele>318.33</ele><time>2012-11-01T07:41:10Z</time></trkpt><trkpt lat="41.4108595066" lon="2.0929867867"><ele>318.81</ele><time>2012-11-01T07:41:19Z</time></trkpt><trkpt lat="41.4110174216" lon="2.0930529200"><ele>319.78</ele><time>2012-11-01T07:41:27Z</time></trkpt><trkpt lat="41.4112224430" lon="2.0930682588"><ele>321.70</ele><time>2012-11-01T07:41:38Z</time></trkpt><trkpt lat="41.4113887399" lon="2.0930395089"><ele>322.18</ele><time>2012-11-01T07:41:46Z</time></trkpt><trkpt lat="41.4114498440" lon="2.0930161234"><ele>322.66</ele><time>2012-11-01T07:41:50Z</time></trkpt><trkpt lat="41.4115449786" lon="2.0929894689"><ele>323.62</ele><time>2012-11-01T07:41:55Z</time></trkpt><trkpt lat="41.4117262792" lon="2.0929494034"><ele>324.58</ele><time>2012-11-01T07:42:04Z</time></trkpt><trkpt lat="41.4118874632" lon="2.0929561090"><ele>326.99</ele><time>2012-11-01T07:42:13Z</time></trkpt><trkpt lat="41.4120200649" lon="2.0930576976"><ele>327.47</ele><time>2012-11-01T07:42:21Z</time></trkpt><trkpt lat="41.4121250901" lon="2.0931997709"><ele>328.43</ele><time>2012-11-01T07:42:29Z</time></trkpt><trkpt lat="41.4121985156" lon="2.0933567639"><ele>328.43</ele><time>2012-11-01T07:42:37Z</time></trkpt><trkpt lat="41.4122864418" lon="2.0935261622"><ele>328.91</ele><time>2012-11-01T07:42:44Z</time></trkpt><trkpt lat="41.4124252461" lon="2.0937000029"><ele>330.35</ele><time>2012-11-01T07:42:54Z</time></trkpt><trkpt lat="41.4126239810" lon="2.0938097220"><ele>331.79</ele><time>2012-11-01T07:43:05Z</time></trkpt><trkpt lat="41.4127960615" lon="2.0937331114"><ele>331.31</ele><time>2012-11-01T07:43:14Z</time></trkpt><trkpt lat="41.4129574969" lon="2.0935444348"><ele>331.79</ele><time>2012-11-01T07:43:24Z</time></trkpt><trkpt lat="41.4130554814" lon="2.0933815744"><ele>332.27</ele><time>2012-11-01T07:43:32Z</time></trkpt><trkpt lat="41.4131444134" lon="2.0931985136"><ele>333.23</ele><time>2012-11-01T07:43:40Z</time></trkpt><trkpt lat="41.4131859038" lon="2.0929917321"><ele>333.71</ele><time>2012-11-01T07:43:48Z</time></trkpt><trkpt lat="41.4132289868" lon="2.0927689411"><ele>333.71</ele><time>2012-11-01T07:43:56Z</time></trkpt><trkpt lat="41.4133138116" lon="2.0925524365"><ele>334.68</ele><time>2012-11-01T07:44:04Z</time></trkpt><trkpt lat="41.4134081081" lon="2.0924126264"><ele>335.16</ele><time>2012-11-01T07:44:10Z</time></trkpt><trkpt lat="41.4135167375" lon="2.0922381151"><ele>336.12</ele><time>2012-11-01T07:44:19Z</time></trkpt><trkpt lat="41.4135365188" lon="2.0920181740"><ele>336.12</ele><time>2012-11-01T07:44:27Z</time></trkpt><trkpt lat="41.4135987125" lon="2.0918605942"><ele>337.08</ele><time>2012-11-01T07:44:34Z</time></trkpt><trkpt lat="41.4136666059" lon="2.0916844904"><ele>337.08</ele><time>2012-11-01T07:44:41Z</time></trkpt><trkpt lat="41.4137148019" lon="2.0914730150"><ele>338.04</ele><time>2012-11-01T07:44:49Z</time></trkpt><trkpt lat="41.4138044883" lon="2.0913607813"><ele>338.04</ele><time>2012-11-01T07:44:55Z</time></trkpt><trkpt lat="41.4139624871" lon="2.0913083106"><ele>339.48</ele><time>2012-11-01T07:45:04Z</time></trkpt><trkpt lat="41.4141037222" lon="2.0911628846"><ele>339.96</ele><time>2012-11-01T07:45:12Z</time></trkpt><trkpt lat="41.4142162073" lon="2.0909172110"><ele>339.96</ele><time>2012-11-01T07:45:21Z</time></trkpt><trkpt lat="41.4143522456" lon="2.0907755569"><ele>340.92</ele><time>2012-11-01T07:45:29Z</time></trkpt><trkpt lat="41.4144832548" lon="2.0906987786"><ele>341.89</ele><time>2012-11-01T07:45:36Z</time></trkpt><trkpt lat="41.4146488812" lon="2.0905514248"><ele>342.85</ele><time>2012-11-01T07:45:44Z</time></trkpt><trkpt lat="41.4147341251" lon="2.0903287176"><ele>343.33</ele><time>2012-11-01T07:45:52Z</time></trkpt><trkpt lat="41.4148184471" lon="2.0901324134"><ele>343.81</ele><time>2012-11-01T07:46:00Z</time></trkpt><trkpt lat="41.4149046969" lon="2.0900590718"><ele>344.77</ele><time>2012-11-01T07:46:07Z</time></trkpt><trkpt lat="41.4150486980" lon="2.0900338423"><ele>344.29</ele><time>2012-11-01T07:46:14Z</time></trkpt><trkpt lat="41.4150982350" lon="2.0900618378"><ele>344.29</ele><time>2012-11-01T07:46:16Z</time></trkpt><trkpt lat="41.4151352830" lon="2.0902867243"><ele>344.29</ele><time>2012-11-01T07:46:23Z</time></trkpt><trkpt lat="41.4151864126" lon="2.0906115230"><ele>344.29</ele><time>2012-11-01T07:46:32Z</time></trkpt><trkpt lat="41.4153362811" lon="2.0908928197"><ele>344.29</ele><time>2012-11-01T07:46:41Z</time></trkpt><trkpt lat="41.4154870715" lon="2.0909911394"><ele>344.29</ele><time>2012-11-01T07:46:48Z</time></trkpt><trkpt lat="41.4156365208" lon="2.0911081508"><ele>344.29</ele><time>2012-11-01T07:46:55Z</time></trkpt><trkpt lat="41.4156583976" lon="2.0913400780"><ele>343.81</ele><time>2012-11-01T07:47:01Z</time></trkpt><trkpt lat="41.4156166557" lon="2.0916659664"><ele>343.33</ele><time>2012-11-01T07:47:10Z</time></trkpt><trkpt lat="41.4155913424" lon="2.0919010788"><ele>343.81</ele><time>2012-11-01T07:47:18Z</time></trkpt><trkpt lat="41.4155839663" lon="2.0919180941"><ele>343.81</ele><time>2012-11-01T07:47:19Z</time></trkpt><trkpt lat="41.4155439008" lon="2.0922077727"><ele>343.81</ele><time>2012-11-01T07:47:29Z</time></trkpt><trkpt lat="41.4155507740" lon="2.0924174041"><ele>343.33</ele><time>2012-11-01T07:47:36Z</time></trkpt><trkpt lat="41.4156043343" lon="2.0925344992"><ele>343.81</ele><time>2012-11-01T07:47:41Z</time></trkpt><trkpt lat="41.4157277998" lon="2.0925947651"><ele>343.81</ele><time>2012-11-01T07:47:47Z</time></trkpt><trkpt lat="41.4158000518" lon="2.0925484132"><ele>343.81</ele><time>2012-11-01T07:47:52Z</time></trkpt><trkpt lat="41.4158623293" lon="2.0923713874"><ele>344.77</ele><time>2012-11-01T07:48:01Z</time></trkpt><trkpt lat="41.4159289654" lon="2.0922424737"><ele>345.73</ele><time>2012-11-01T07:48:09Z</time></trkpt><trkpt lat="41.4160416182" lon="2.0921209361"><ele>346.69</ele><time>2012-11-01T07:48:18Z</time></trkpt><trkpt lat="41.4161529299" lon="2.0920314174"><ele>348.13</ele><time>2012-11-01T07:48:26Z</time></trkpt><trkpt lat="41.4162630681" lon="2.0919164177"><ele>348.62</ele><time>2012-11-01T07:48:34Z</time></trkpt><trkpt lat="41.4163649920" lon="2.0917136595"><ele>350.06</ele><time>2012-11-01T07:48:44Z</time></trkpt><trkpt lat="41.4164657425" lon="2.0915271621"><ele>350.54</ele><time>2012-11-01T07:48:52Z</time></trkpt><trkpt lat="41.4165902976" lon="2.0912926365"><ele>351.02</ele><time>2012-11-01T07:49:01Z</time></trkpt><trkpt lat="41.4167085662" lon="2.0910683367"><ele>351.98</ele><time>2012-11-01T07:49:11Z</time></trkpt><trkpt lat="41.4167671558" lon="2.0909225754"><ele>351.98</ele><time>2012-11-01T07:49:17Z</time></trkpt><trkpt lat="41.4168797247" lon="2.0907564461"><ele>352.94</ele><time>2012-11-01T07:49:25Z</time></trkpt><trkpt lat="41.4169760328" lon="2.0906625688"><ele>354.38</ele><time>2012-11-01T07:49:33Z</time></trkpt><trkpt lat="41.4170917869" lon="2.0905571245"><ele>356.31</ele><time>2012-11-01T07:49:42Z</time></trkpt><trkpt lat="41.4172042720" lon="2.0905263629"><ele>357.27</ele><time>2012-11-01T07:49:49Z</time></trkpt><trkpt lat="41.4173359517" lon="2.0906030573"><ele>357.75</ele><time>2012-11-01T07:49:56Z</time></trkpt><trkpt lat="41.4174123947" lon="2.0907814242"><ele>358.71</ele><time>2012-11-01T07:50:03Z</time></trkpt><trkpt lat="41.4174688887" lon="2.0910451189"><ele>359.19</ele><time>2012-11-01T07:50:12Z</time></trkpt><trkpt lat="41.4175283164" lon="2.0913195424"><ele>359.19</ele><time>2012-11-01T07:50:21Z</time></trkpt><trkpt lat="41.4176399633" lon="2.0913928002"><ele>360.15</ele><time>2012-11-01T07:50:28Z</time></trkpt><trkpt lat="41.4178040810" lon="2.0914337877"><ele>362.55</ele><time>2012-11-01T07:50:37Z</time></trkpt><trkpt lat="41.4179189969" lon="2.0913877711"><ele>364.00</ele><time>2012-11-01T07:50:44Z</time></trkpt><trkpt lat="41.4180442225" lon="2.0912309457"><ele>365.44</ele><time>2012-11-01T07:50:53Z</time></trkpt><trkpt lat="41.4181689452" lon="2.0910699293"><ele>366.88</ele><time>2012-11-01T07:51:02Z</time></trkpt><trkpt lat="41.4182740543" lon="2.0909428596"><ele>368.80</ele><time>2012-11-01T07:51:10Z</time></trkpt><trkpt lat="41.4183630701" lon="2.0908345655"><ele>370.24</ele><time>2012-11-01T07:51:17Z</time></trkpt><trkpt lat="41.4184276108" lon="2.0907617267"><ele>370.24</ele><time>2012-11-01T07:51:22Z</time></trkpt><trkpt lat="41.4185690973" lon="2.0906619821"><ele>369.28</ele><time>2012-11-01T07:51:28Z</time></trkpt><trkpt lat="41.4186458755" lon="2.0906194858"><ele>368.32</ele><time>2012-11-01T07:51:30Z</time></trkpt><trkpt lat="41.4188507292" lon="2.0905858744"><ele>365.92</ele><time>2012-11-01T07:51:35Z</time></trkpt><trkpt lat="41.4189606998" lon="2.0906826854"><ele>366.40</ele><time>2012-11-01T07:51:38Z</time></trkpt><trkpt lat="41.4191048685" lon="2.0908235852"><ele>367.36</ele><time>2012-11-01T07:51:44Z</time></trkpt><trkpt lat="41.4192652144" lon="2.0908989385"><ele>369.28</ele><time>2012-11-01T07:51:52Z</time></trkpt><trkpt lat="41.4193268213" lon="2.0908965077"><ele>369.76</ele><time>2012-11-01T07:51:55Z</time></trkpt><trkpt lat="41.4194038510" lon="2.0908145327"><ele>370.24</ele><time>2012-11-01T07:52:00Z</time></trkpt><trkpt lat="41.4195352793" lon="2.0906339865"><ele>371.21</ele><time>2012-11-01T07:52:09Z</time></trkpt><trkpt lat="41.4196524583" lon="2.0905056596"><ele>371.21</ele><time>2012-11-01T07:52:16Z</time></trkpt><trkpt lat="41.4197771810" lon="2.0904227626"><ele>370.73</ele><time>2012-11-01T07:52:22Z</time></trkpt><trkpt lat="41.4200551249" lon="2.0902908314"><ele>367.84</ele><time>2012-11-01T07:52:31Z</time></trkpt><trkpt lat="41.4202133752" lon="2.0901319105"><ele>365.92</ele><time>2012-11-01T07:52:37Z</time></trkpt><trkpt lat="41.4202333242" lon="2.0900843013"><ele>365.44</ele><time>2012-11-01T07:52:38Z</time></trkpt><trkpt lat="41.4202839509" lon="2.0898948703"><ele>363.04</ele><time>2012-11-01T07:52:41Z</time></trkpt><trkpt lat="41.4204113558" lon="2.0896929502"><ele>361.11</ele><time>2012-11-01T07:52:45Z</time></trkpt><trkpt lat="41.4205662534" lon="2.0895310119"><ele>361.59</ele><time>2012-11-01T07:52:50Z</time></trkpt><trkpt lat="41.4207185525" lon="2.0892083924"><ele>358.71</ele><time>2012-11-01T07:52:56Z</time></trkpt><trkpt lat="41.4209441096" lon="2.0889135171"><ele>356.79</ele><time>2012-11-01T07:53:03Z</time></trkpt><trkpt lat="41.4211207163" lon="2.0886722021"><ele>352.94</ele><time>2012-11-01T07:53:08Z</time></trkpt><trkpt lat="41.4211467002" lon="2.0886344835"><ele>352.46</ele><time>2012-11-01T07:53:09Z</time></trkpt><trkpt lat="41.4211881068" lon="2.0883889776"><ele>352.94</ele><time>2012-11-01T07:53:16Z</time></trkpt><trkpt lat="41.4212265797" lon="2.0882485807"><ele>353.90</ele><time>2012-11-01T07:53:22Z</time></trkpt><trkpt lat="41.4213576727" lon="2.0881513506"><ele>356.79</ele><time>2012-11-01T07:53:30Z</time></trkpt><trkpt lat="41.4215014223" lon="2.0881265402"><ele>359.67</ele><time>2012-11-01T07:53:38Z</time></trkpt><trkpt lat="41.4216680545" lon="2.0881170686"><ele>361.59</ele><time>2012-11-01T07:53:47Z</time></trkpt><trkpt lat="41.4218149893" lon="2.0881299768"><ele>363.52</ele><time>2012-11-01T07:53:55Z</time></trkpt><trkpt lat="41.4219749998" lon="2.0881512668"><ele>365.92</ele><time>2012-11-01T07:54:03Z</time></trkpt><trkpt lat="41.4220697992" lon="2.0881087705"><ele>366.88</ele><time>2012-11-01T07:54:10Z</time></trkpt><trkpt lat="41.4221644308" lon="2.0879769232"><ele>367.36</ele><time>2012-11-01T07:54:18Z</time></trkpt><trkpt lat="41.4221721422" lon="2.0879584830"><ele>367.84</ele><time>2012-11-01T07:54:19Z</time></trkpt><trkpt lat="41.4222338330" lon="2.0877442416"><ele>369.28</ele><time>2012-11-01T07:54:29Z</time></trkpt><trkpt lat="41.4222555421" lon="2.0876314212"><ele>370.24</ele><time>2012-11-01T07:54:35Z</time></trkpt><trkpt lat="41.4222265407" lon="2.0875481889"><ele>370.73</ele><time>2012-11-01T07:54:40Z</time></trkpt><trkpt lat="41.4221888222" lon="2.0875158347"><ele>372.17</ele><time>2012-11-01T07:54:44Z</time></trkpt><trkpt lat="41.4221055061" lon="2.0875602588"><ele>374.09</ele><time>2012-11-01T07:54:52Z</time></trkpt><trkpt lat="41.4220183343" lon="2.0875807106"><ele>376.01</ele><time>2012-11-01T07:54:59Z</time></trkpt><trkpt lat="41.4219305757" lon="2.0874833129"><ele>377.94</ele><time>2012-11-01T07:55:09Z</time></trkpt><trkpt lat="41.4218908455" lon="2.0873400662"><ele>378.42</ele><time>2012-11-01T07:55:17Z</time></trkpt><trkpt lat="41.4218389615" lon="2.0871666446"><ele>378.42</ele><time>2012-11-01T07:55:25Z</time></trkpt><trkpt lat="41.4217872452" lon="2.0869326219"><ele>378.42</ele><time>2012-11-01T07:55:33Z</time></trkpt><trkpt lat="41.4217494428" lon="2.0866965037"><ele>379.86</ele><time>2012-11-01T07:55:42Z</time></trkpt><trkpt lat="41.4216968045" lon="2.0864701085"><ele>380.82</ele><time>2012-11-01T07:55:51Z</time></trkpt><trkpt lat="41.4215985686" lon="2.0862404443"><ele>381.30</ele><time>2012-11-01T07:56:00Z</time></trkpt><trkpt lat="41.4214591775" lon="2.0860805176"><ele>381.78</ele><time>2012-11-01T07:56:09Z</time></trkpt><trkpt lat="41.4213000890" lon="2.0859061740"><ele>382.74</ele><time>2012-11-01T07:56:20Z</time></trkpt><trkpt lat="41.4211994223" lon="2.0857872348"><ele>382.26</ele><time>2012-11-01T07:56:27Z</time></trkpt><trkpt lat="41.4210962411" lon="2.0855884161"><ele>382.74</ele><time>2012-11-01T07:56:36Z</time></trkpt><trkpt lat="41.4209931437" lon="2.0853759348"><ele>382.74</ele><time>2012-11-01T07:56:44Z</time></trkpt><trkpt lat="41.4208466280" lon="2.0852287486"><ele>383.22</ele><time>2012-11-01T07:56:52Z</time></trkpt><trkpt lat="41.4206787385" lon="2.0851714164"><ele>383.22</ele><time>2012-11-01T07:56:59Z</time></trkpt><trkpt lat="41.4205627330" lon="2.0851548202"><ele>382.26</ele><time>2012-11-01T07:57:02Z</time></trkpt><trkpt lat="41.4202785026" lon="2.0850224700"><ele>380.82</ele><time>2012-11-01T07:57:08Z</time></trkpt><trkpt lat="41.4201370999" lon="2.0847770479"><ele>379.86</ele><time>2012-11-01T07:57:13Z</time></trkpt><trkpt lat="41.4201609045" lon="2.0846796501"><ele>379.86</ele><time>2012-11-01T07:57:15Z</time></trkpt><trkpt lat="41.4202670194" lon="2.0844664983"><ele>380.82</ele><time>2012-11-01T07:57:22Z</time></trkpt><trkpt lat="41.4202785026" lon="2.0842679311"><ele>380.82</ele><time>2012-11-01T07:57:28Z</time></trkpt><trkpt lat="41.4201936778" lon="2.0840524323"><ele>379.86</ele><time>2012-11-01T07:57:34Z</time></trkpt><trkpt lat="41.4201992936" lon="2.0838125423"><ele>380.34</ele><time>2012-11-01T07:57:39Z</time></trkpt><trkpt lat="41.4202085976" lon="2.0837794337"><ele>380.34</ele><time>2012-11-01T07:57:40Z</time></trkpt><trkpt lat="41.4202511776" lon="2.0834593289"><ele>382.26</ele><time>2012-11-01T07:57:50Z</time></trkpt><trkpt lat="41.4202598110" lon="2.0832186844"><ele>384.18</ele><time>2012-11-01T07:57:59Z</time></trkpt><trkpt lat="41.4202991221" lon="2.0829658862"><ele>384.66</ele><time>2012-11-01T07:58:07Z</time></trkpt><trkpt lat="41.4203362539" lon="2.0827574283"><ele>386.59</ele><time>2012-11-01T07:58:15Z</time></trkpt><trkpt lat="41.4202866331" lon="2.0825196337"><ele>388.51</ele><time>2012-11-01T07:58:24Z</time></trkpt><trkpt lat="41.4202675223" lon="2.0823271014"><ele>389.95</ele><time>2012-11-01T07:58:31Z</time></trkpt><trkpt lat="41.4202875551" lon="2.0821333956"><ele>390.91</ele><time>2012-11-01T07:58:39Z</time></trkpt><trkpt lat="41.4202524349" lon="2.0819857903"><ele>391.87</ele><time>2012-11-01T07:58:46Z</time></trkpt><trkpt lat="41.4201984555" lon="2.0819393545"><ele>392.36</ele><time>2012-11-01T07:58:50Z</time></trkpt><trkpt lat="41.4201452304" lon="2.0819298830"><ele>392.84</ele><time>2012-11-01T07:58:54Z</time></trkpt><trkpt lat="41.4199910872" lon="2.0819579624"><ele>394.28</ele><time>2012-11-01T07:59:04Z</time></trkpt><trkpt lat="41.4198658615" lon="2.0820136182"><ele>395.72</ele><time>2012-11-01T07:59:13Z</time></trkpt><trkpt lat="41.4197469223" lon="2.0820385125"><ele>397.16</ele><time>2012-11-01T07:59:21Z</time></trkpt><trkpt lat="41.4196491893" lon="2.0820301306"><ele>398.12</ele><time>2012-11-01T07:59:27Z</time></trkpt><trkpt lat="41.4194862451" lon="2.0820297115"><ele>399.08</ele><time>2012-11-01T07:59:36Z</time></trkpt><trkpt lat="41.4193745144" lon="2.0821181405"><ele>401.49</ele><time>2012-11-01T07:59:45Z</time></trkpt><trkpt lat="41.4192475285" lon="2.0822669193"><ele>402.93</ele><time>2012-11-01T07:59:55Z</time></trkpt><trkpt lat="41.4191316068" lon="2.0823491458"><ele>404.85</ele><time>2012-11-01T08:00:04Z</time></trkpt><trkpt lat="41.4190111589" lon="2.0824473817"><ele>406.29</ele><time>2012-11-01T08:00:14Z</time></trkpt><trkpt lat="41.4188730251" lon="2.0825754572"><ele>408.70</ele><time>2012-11-01T08:00:25Z</time></trkpt><trkpt lat="41.4187849313" lon="2.0826708432"><ele>410.14</ele><time>2012-11-01T08:00:33Z</time></trkpt><trkpt lat="41.4187349752" lon="2.0827497169"><ele>411.10</ele><time>2012-11-01T08:00:38Z</time></trkpt><trkpt lat="41.4187086560" lon="2.0827971585"><ele>411.10</ele><time>2012-11-01T08:00:41Z</time></trkpt><trkpt lat="41.4186286926" lon="2.0828929637"><ele>412.54</ele><time>2012-11-01T08:00:49Z</time></trkpt><trkpt lat="41.4185242541" lon="2.0829948876"><ele>413.98</ele><time>2012-11-01T08:00:58Z</time></trkpt><trkpt lat="41.4184109308" lon="2.0830352046"><ele>415.91</ele><time>2012-11-01T08:01:06Z</time></trkpt><trkpt lat="41.4184014592" lon="2.0830406528"><ele>415.91</ele><time>2012-11-01T08:01:07Z</time></trkpt><trkpt lat="41.4183999505" lon="2.0831383858"><ele>416.87</ele><time>2012-11-01T08:01:13Z</time></trkpt><trkpt lat="41.4184666704" lon="2.0831491984"><ele>417.83</ele><time>2012-11-01T08:01:19Z</time></trkpt><trkpt lat="41.4185855258" lon="2.0831029303"><ele>419.27</ele><time>2012-11-01T08:01:28Z</time></trkpt><trkpt lat="41.4186793193" lon="2.0830375515"><ele>420.23</ele><time>2012-11-01T08:01:36Z</time></trkpt><trkpt lat="41.4187679160" lon="2.0829564147"><ele>421.68</ele><time>2012-11-01T08:01:44Z</time></trkpt><trkpt lat="41.4188787248" lon="2.0829128288"><ele>422.64</ele><time>2012-11-01T08:01:52Z</time></trkpt><trkpt lat="41.4189850911" lon="2.0828968193"><ele>423.60</ele><time>2012-11-01T08:01:59Z</time></trkpt><trkpt lat="41.4190352149" lon="2.0829593483"><ele>424.56</ele><time>2012-11-01T08:02:03Z</time></trkpt><trkpt lat="41.4189887792" lon="2.0830196142"><ele>425.52</ele><time>2012-11-01T08:02:08Z</time></trkpt><trkpt lat="41.4188417606" lon="2.0831339434"><ele>426.48</ele><time>2012-11-01T08:02:19Z</time></trkpt><trkpt lat="41.4187778067" lon="2.0832043514"><ele>426.96</ele><time>2012-11-01T08:02:24Z</time></trkpt><trkpt lat="41.4187312871" lon="2.0832704008"><ele>427.44</ele><time>2012-11-01T08:02:29Z</time></trkpt><trkpt lat="41.4186009485" lon="2.0833699778"><ele>429.37</ele><time>2012-11-01T08:02:39Z</time></trkpt><trkpt lat="41.4184667543" lon="2.0833960455"><ele>429.85</ele><time>2012-11-01T08:02:47Z</time></trkpt><trkpt lat="41.4183610585" lon="2.0833859872"><ele>430.81</ele><time>2012-11-01T08:02:54Z</time></trkpt><trkpt lat="41.4182512555" lon="2.0833838079"><ele>431.77</ele><time>2012-11-01T08:03:02Z</time></trkpt><trkpt lat="41.4181286283" lon="2.0833509509"><ele>432.73</ele><time>2012-11-01T08:03:10Z</time></trkpt><trkpt lat="41.4180361759" lon="2.0832322631"><ele>434.17</ele><time>2012-11-01T08:03:19Z</time></trkpt><trkpt lat="41.4179904945" lon="2.0830440894"><ele>435.13</ele><time>2012-11-01T08:03:28Z</time></trkpt><trkpt lat="41.4179081004" lon="2.0829164330"><ele>435.13</ele><time>2012-11-01T08:03:36Z</time></trkpt><trkpt lat="41.4177926816" lon="2.0828300994"><ele>436.58</ele><time>2012-11-01T08:03:44Z</time></trkpt><trkpt lat="41.4176707249" lon="2.0828041993"><ele>438.02</ele><time>2012-11-01T08:03:52Z</time></trkpt><trkpt lat="41.4175611734" lon="2.0828431752"><ele>439.46</ele><time>2012-11-01T08:04:00Z</time></trkpt><trkpt lat="41.4174545556" lon="2.0829186961"><ele>439.94</ele><time>2012-11-01T08:04:07Z</time></trkpt><trkpt lat="41.4174247161" lon="2.0829419140"><ele>439.94</ele><time>2012-11-01T08:04:09Z</time></trkpt><trkpt lat="41.4173480216" lon="2.0829347894"><ele>440.90</ele><time>2012-11-01T08:04:14Z</time></trkpt><trkpt lat="41.4173150808" lon="2.0829129126"><ele>440.90</ele><time>2012-11-01T08:04:16Z</time></trkpt><trkpt lat="41.4172178507" lon="2.0827998407"><ele>441.86</ele><time>2012-11-01T08:04:25Z</time></trkpt><trkpt lat="41.4170535654" lon="2.0826667361"><ele>442.82</ele><time>2012-11-01T08:04:34Z</time></trkpt><trkpt lat="41.4170280006" lon="2.0826519839"><ele>442.82</ele><time>2012-11-01T08:04:35Z</time></trkpt><trkpt lat="41.4169625379" lon="2.0825625490"><ele>442.82</ele><time>2012-11-01T08:04:40Z</time></trkpt><trkpt lat="41.4168221410" lon="2.0823464636"><ele>443.31</ele><time>2012-11-01T08:04:51Z</time></trkpt><trkpt lat="41.4166758768" lon="2.0822416898"><ele>443.79</ele><time>2012-11-01T08:04:59Z</time></trkpt><trkpt lat="41.4165054727" lon="2.0821145363"><ele>444.75</ele><time>2012-11-01T08:05:08Z</time></trkpt><trkpt lat="41.4163956698" lon="2.0819403604"><ele>445.23</ele><time>2012-11-01T08:05:16Z</time></trkpt><trkpt lat="41.4163551852" lon="2.0817812718"><ele>445.23</ele><time>2012-11-01T08:05:21Z</time></trkpt><trkpt lat="41.4162688516" lon="2.0814710576"><ele>443.31</ele><time>2012-11-01T08:05:28Z</time></trkpt><trkpt lat="41.4162066579" lon="2.0810334384"><ele>442.82</ele><time>2012-11-01T08:05:36Z</time></trkpt><trkpt lat="41.4161523432" lon="2.0808416605"><ele>442.34</ele><time>2012-11-01T08:05:40Z</time></trkpt><trkpt lat="41.4159419574" lon="2.0805802289"><ele>439.94</ele><time>2012-11-01T08:05:46Z</time></trkpt><trkpt lat="41.4159043226" lon="2.0805496350"><ele>439.94</ele><time>2012-11-01T08:05:47Z</time></trkpt><trkpt lat="41.4157250337" lon="2.0802295301"><ele>438.02</ele><time>2012-11-01T08:05:53Z</time></trkpt><trkpt lat="41.4157224353" lon="2.0801527519"><ele>437.54</ele><time>2012-11-01T08:05:54Z</time></trkpt><trkpt lat="41.4157526102" lon="2.0796641707"><ele>435.61</ele><time>2012-11-01T08:06:01Z</time></trkpt><trkpt lat="41.4157741517" lon="2.0795540325"><ele>435.13</ele><time>2012-11-01T08:06:03Z</time></trkpt><trkpt lat="41.4157714695" lon="2.0793118794"><ele>434.17</ele><time>2012-11-01T08:06:07Z</time></trkpt><trkpt lat="41.4157120418" lon="2.0790768508"><ele>432.73</ele><time>2012-11-01T08:06:11Z</time></trkpt><trkpt lat="41.4156007301" lon="2.0785997529"><ele>431.29</ele><time>2012-11-01T08:06:18Z</time></trkpt><trkpt lat="41.4156465791" lon="2.0782086533"><ele>429.37</ele><time>2012-11-01T08:06:23Z</time></trkpt><trkpt lat="41.4157768339" lon="2.0778920688"><ele>428.40</ele><time>2012-11-01T08:06:27Z</time></trkpt><trkpt lat="41.4158262033" lon="2.0777160488"><ele>426.96</ele><time>2012-11-01T08:06:29Z</time></trkpt><trkpt lat="41.4158594795" lon="2.0775332395"><ele>426.00</ele><time>2012-11-01T08:06:31Z</time></trkpt><trkpt lat="41.4159871358" lon="2.0770392939"><ele>425.52</ele><time>2012-11-01T08:06:37Z</time></trkpt><trkpt lat="41.4159868844" lon="2.0769634377"><ele>426.00</ele><time>2012-11-01T08:06:38Z</time></trkpt><trkpt lat="41.4159931708" lon="2.0766562410"><ele>426.96</ele><time>2012-11-01T08:06:44Z</time></trkpt><trkpt lat="41.4160155505" lon="2.0764380600"><ele>427.92</ele><time>2012-11-01T08:06:52Z</time></trkpt><trkpt lat="41.4160332363" lon="2.0763699990"><ele>428.40</ele><time>2012-11-01T08:07:00Z</time></trkpt><trkpt lat="41.4160243515" lon="2.0763594378"><ele>428.40</ele><time>2012-11-01T08:07:12Z</time></trkpt><trkpt lat="41.4160339907" lon="2.0763551630"><ele>427.92</ele><time>2012-11-01T08:07:30Z</time></trkpt><trkpt lat="41.4160352480" lon="2.0763543248"><ele>427.92</ele><time>2012-11-01T08:07:41Z</time></trkpt><trkpt lat="41.4160349127" lon="2.0763530675"><ele>427.92</ele><time>2012-11-01T08:07:45Z</time></trkpt><trkpt lat="41.4160215855" lon="2.0763057098"><ele>427.92</ele><time>2012-11-01T08:07:49Z</time></trkpt><trkpt lat="41.4159795083" lon="2.0762762893"><ele>427.92</ele><time>2012-11-01T08:07:53Z</time></trkpt><trkpt lat="41.4158098586" lon="2.0762902033"><ele>427.92</ele><time>2012-11-01T08:08:01Z</time></trkpt><trkpt lat="41.4155859780" lon="2.0763346273"><ele>426.96</ele><time>2012-11-01T08:08:10Z</time></trkpt><trkpt lat="41.4155462477" lon="2.0763446018"><ele>426.96</ele><time>2012-11-01T08:08:12Z</time></trkpt><trkpt lat="41.4155646041" lon="2.0763916243"><ele>426.48</ele><time>2012-11-01T08:08:16Z</time></trkpt><trkpt lat="41.4156215172" lon="2.0763762854"><ele>426.96</ele><time>2012-11-01T08:08:19Z</time></trkpt><trkpt lat="41.4158889838" lon="2.0763086434"><ele>427.92</ele><time>2012-11-01T08:08:32Z</time></trkpt><trkpt lat="41.4161173068" lon="2.0762922149"><ele>428.40</ele><time>2012-11-01T08:08:41Z</time></trkpt><trkpt lat="41.4162922371" lon="2.0762270037"><ele>427.44</ele><time>2012-11-01T08:08:47Z</time></trkpt><trkpt lat="41.4163530059" lon="2.0761708450"><ele>427.44</ele><time>2012-11-01T08:08:49Z</time></trkpt><trkpt lat="41.4165891241" lon="2.0757821761"><ele>424.56</ele><time>2012-11-01T08:08:56Z</time></trkpt><trkpt lat="41.4167301916" lon="2.0755668450"><ele>423.12</ele><time>2012-11-01T08:08:59Z</time></trkpt><trkpt lat="41.4170120750" lon="2.0751315728"><ele>419.27</ele><time>2012-11-01T08:09:05Z</time></trkpt><trkpt lat="41.4173309226" lon="2.0746522117"><ele>415.91</ele><time>2012-11-01T08:09:11Z</time></trkpt><trkpt lat="41.4174312539" lon="2.0744962245"><ele>414.95</ele><time>2012-11-01T08:09:13Z</time></trkpt><trkpt lat="41.4175833855" lon="2.0741654746"><ele>413.02</ele><time>2012-11-01T08:09:17Z</time></trkpt><trkpt lat="41.4177315775" lon="2.0734903961"><ele>409.66</ele><time>2012-11-01T08:09:24Z</time></trkpt><trkpt lat="41.4177532028" lon="2.0732997078"><ele>408.70</ele><time>2012-11-01T08:09:26Z</time></trkpt><trkpt lat="41.4178594854" lon="2.0729414653"><ele>406.29</ele><time>2012-11-01T08:09:31Z</time></trkpt><trkpt lat="41.4180170652" lon="2.0727605838"><ele>404.85</ele><time>2012-11-01T08:09:37Z</time></trkpt><trkpt lat="41.4180319849" lon="2.0727407187"><ele>404.37</ele><time>2012-11-01T08:09:38Z</time></trkpt><trkpt lat="41.4180394448" lon="2.0726817101"><ele>403.89</ele><time>2012-11-01T08:09:43Z</time></trkpt><trkpt lat="41.4180045761" lon="2.0726077817"><ele>403.41</ele><time>2012-11-01T08:09:49Z</time></trkpt><trkpt lat="41.4179612417" lon="2.0725807920"><ele>402.93</ele><time>2012-11-01T08:09:51Z</time></trkpt><trkpt lat="41.4177761693" lon="2.0726065245"><ele>399.57</ele><time>2012-11-01T08:09:57Z</time></trkpt><trkpt lat="41.4176298212" lon="2.0727568958"><ele>396.68</ele><time>2012-11-01T08:10:02Z</time></trkpt><trkpt lat="41.4174863230" lon="2.0729170740"><ele>395.24</ele><time>2012-11-01T08:10:07Z</time></trkpt><trkpt lat="41.4174159989" lon="2.0729940198"><ele>393.32</ele><time>2012-11-01T08:10:09Z</time></trkpt><trkpt lat="41.4172376320" lon="2.0730887353"><ele>389.95</ele><time>2012-11-01T08:10:13Z</time></trkpt><trkpt lat="41.4170076326" lon="2.0730912499"><ele>385.15</ele><time>2012-11-01T08:10:17Z</time></trkpt><trkpt lat="41.4168455265" lon="2.0730981231"><ele>382.26</ele><time>2012-11-01T08:10:20Z</time></trkpt><trkpt lat="41.4166125096" lon="2.0732615702"><ele>378.42</ele><time>2012-11-01T08:10:25Z</time></trkpt><trkpt lat="41.4164519962" lon="2.0733596385"><ele>375.05</ele><time>2012-11-01T08:10:28Z</time></trkpt><trkpt lat="41.4162114356" lon="2.0733818505"><ele>370.24</ele><time>2012-11-01T08:10:32Z</time></trkpt><trkpt lat="41.4160373434" lon="2.0733521786"><ele>366.88</ele><time>2012-11-01T08:10:35Z</time></trkpt><trkpt lat="41.4158159774" lon="2.0734681841"><ele>363.52</ele><time>2012-11-01T08:10:40Z</time></trkpt><trkpt lat="41.4156703837" lon="2.0733635779"><ele>361.59</ele><time>2012-11-01T08:10:43Z</time></trkpt><trkpt lat="41.4156305697" lon="2.0733096823"><ele>361.59</ele><time>2012-11-01T08:10:44Z</time></trkpt><trkpt lat="41.4154683799" lon="2.0729293954"><ele>357.75</ele><time>2012-11-01T08:10:50Z</time></trkpt><trkpt lat="41.4153729100" lon="2.0726958755"><ele>353.90</ele><time>2012-11-01T08:10:53Z</time></trkpt><trkpt lat="41.4152640291" lon="2.0725596696"><ele>352.46</ele><time>2012-11-01T08:10:55Z</time></trkpt><trkpt lat="41.4149257354" lon="2.0721557457"><ele>351.50</ele><time>2012-11-01T08:11:02Z</time></trkpt><trkpt lat="41.4148831554" lon="2.0720875170"><ele>351.02</ele><time>2012-11-01T08:11:03Z</time></trkpt><trkpt lat="41.4146284293" lon="2.0719168615"><ele>348.13</ele><time>2012-11-01T08:11:08Z</time></trkpt><trkpt lat="41.4145681635" lon="2.0718987565"><ele>347.17</ele><time>2012-11-01T08:11:09Z</time></trkpt><trkpt lat="41.4143922273" lon="2.0717932284"><ele>342.37</ele><time>2012-11-01T08:11:13Z</time></trkpt><trkpt lat="41.4143086597" lon="2.0717029553"><ele>339.96</ele><time>2012-11-01T08:11:17Z</time></trkpt><trkpt lat="41.4143401757" lon="2.0716338046"><ele>339.00</ele><time>2012-11-01T08:11:20Z</time></trkpt><trkpt lat="41.4143663272" lon="2.0716356486"><ele>338.52</ele><time>2012-11-01T08:11:21Z</time></trkpt><trkpt lat="41.4144953247" lon="2.0716927294"><ele>337.56</ele><time>2012-11-01T08:11:25Z</time></trkpt><trkpt lat="41.4147437643" lon="2.0716679189"><ele>335.64</ele><time>2012-11-01T08:11:30Z</time></trkpt><trkpt lat="41.4148580097" lon="2.0716514904"><ele>334.68</ele><time>2012-11-01T08:11:32Z</time></trkpt><trkpt lat="41.4150668029" lon="2.0717701782"><ele>332.75</ele><time>2012-11-01T08:11:37Z</time></trkpt><trkpt lat="41.4151522983" lon="2.0717413444"><ele>330.83</ele><time>2012-11-01T08:11:40Z</time></trkpt><trkpt lat="41.4151166752" lon="2.0716071501"><ele>328.91</ele><time>2012-11-01T08:11:43Z</time></trkpt><trkpt lat="41.4149999991" lon="2.0714284480"><ele>325.54</ele><time>2012-11-01T08:11:47Z</time></trkpt><trkpt lat="41.4148354623" lon="2.0713402703"><ele>321.22</ele><time>2012-11-01T08:11:51Z</time></trkpt><trkpt lat="41.4145842567" lon="2.0712506678"><ele>315.93</ele><time>2012-11-01T08:11:57Z</time></trkpt><trkpt lat="41.4145137649" lon="2.0711750630"><ele>314.01</ele><time>2012-11-01T08:11:59Z</time></trkpt><trkpt lat="41.4144528285" lon="2.0710924175"><ele>313.05</ele><time>2012-11-01T08:12:01Z</time></trkpt><trkpt lat="41.4144218154" lon="2.0710495021"><ele>312.57</ele><time>2012-11-01T08:12:02Z</time></trkpt><trkpt lat="41.4143739548" lon="2.0709516853"><ele>311.60</ele><time>2012-11-01T08:12:04Z</time></trkpt><trkpt lat="41.4142838493" lon="2.0708172396"><ele>309.68</ele><time>2012-11-01T08:12:07Z</time></trkpt><trkpt lat="41.4141087513" lon="2.0706731547"><ele>305.36</ele><time>2012-11-01T08:12:12Z</time></trkpt><trkpt lat="41.4139657561" lon="2.0707524475"><ele>302.47</ele><time>2012-11-01T08:12:16Z</time></trkpt><trkpt lat="41.4138550311" lon="2.0708966162"><ele>300.55</ele><time>2012-11-01T08:12:19Z</time></trkpt><trkpt lat="41.4137975313" lon="2.0710104425"><ele>299.59</ele><time>2012-11-01T08:12:21Z</time></trkpt><trkpt lat="41.4136092737" lon="2.0711067505"><ele>296.70</ele><time>2012-11-01T08:12:25Z</time></trkpt><trkpt lat="41.4134275541" lon="2.0710467361"><ele>294.78</ele><time>2012-11-01T08:12:28Z</time></trkpt><trkpt lat="41.4133074414" lon="2.0709667727"><ele>292.86</ele><time>2012-11-01T08:12:30Z</time></trkpt><trkpt lat="41.4130543917" lon="2.0709095243"><ele>290.46</ele><time>2012-11-01T08:12:34Z</time></trkpt><trkpt lat="41.4127901103" lon="2.0708474144"><ele>286.61</ele><time>2012-11-01T08:12:39Z</time></trkpt><trkpt lat="41.4126694109" lon="2.0707915071"><ele>285.17</ele><time>2012-11-01T08:12:42Z</time></trkpt><trkpt lat="41.4126083069" lon="2.0707585663"><ele>284.21</ele><time>2012-11-01T08:12:44Z</time></trkpt><trkpt lat="41.4124198817" lon="2.0705693867"><ele>282.77</ele><time>2012-11-01T08:12:49Z</time></trkpt><trkpt lat="41.4122735336" lon="2.0704653673"><ele>284.21</ele><time>2012-11-01T08:12:54Z</time></trkpt><trkpt lat="41.4121336397" lon="2.0703242999"><ele>283.25</ele><time>2012-11-01T08:13:00Z</time></trkpt><trkpt lat="41.4119679295" lon="2.0700510498"><ele>281.32</ele><time>2012-11-01T08:13:07Z</time></trkpt><trkpt lat="41.4118012134" lon="2.0698302705"><ele>281.32</ele><time>2012-11-01T08:13:14Z</time></trkpt><trkpt lat="41.4115658496" lon="2.0695293602"><ele>280.84</ele><time>2012-11-01T08:13:23Z</time></trkpt><trkpt lat="41.4114198368" lon="2.0692700241"><ele>281.80</ele><time>2012-11-01T08:13:31Z</time></trkpt><trkpt lat="41.4112402964" lon="2.0691148750"><ele>280.84</ele><time>2012-11-01T08:13:38Z</time></trkpt><trkpt lat="41.4109973889" lon="2.0691565331"><ele>280.36</ele><time>2012-11-01T08:13:45Z</time></trkpt><trkpt lat="41.4107721671" lon="2.0691664238"><ele>279.88</ele><time>2012-11-01T08:13:52Z</time></trkpt><trkpt lat="41.4106032718" lon="2.0689707901"><ele>279.40</ele><time>2012-11-01T08:13:59Z</time></trkpt><trkpt lat="41.4104633778" lon="2.0686446503"><ele>276.52</ele><time>2012-11-01T08:14:05Z</time></trkpt><trkpt lat="41.4103501383" lon="2.0683776028"><ele>274.59</ele><time>2012-11-01T08:14:10Z</time></trkpt><trkpt lat="41.4101490565" lon="2.0681242179"><ele>269.79</ele><time>2012-11-01T08:14:16Z</time></trkpt><trkpt lat="41.4099930692" lon="2.0680329390"><ele>266.42</ele><time>2012-11-01T08:14:19Z</time></trkpt><trkpt lat="41.4098858647" lon="2.0680077933"><ele>264.50</ele><time>2012-11-01T08:14:21Z</time></trkpt><trkpt lat="41.4097203221" lon="2.0680016745"><ele>261.62</ele><time>2012-11-01T08:14:24Z</time></trkpt><trkpt lat="41.4095871337" lon="2.0680419914"><ele>258.25</ele><time>2012-11-01T08:14:27Z</time></trkpt><trkpt lat="41.4095049910" lon="2.0679691527"><ele>255.85</ele><time>2012-11-01T08:14:31Z</time></trkpt><trkpt lat="41.4095442183" lon="2.0679069590"><ele>254.89</ele><time>2012-11-01T08:14:33Z</time></trkpt><trkpt lat="41.4097686019" lon="2.0677061286"><ele>250.08</ele><time>2012-11-01T08:14:39Z</time></trkpt><trkpt lat="41.4099244215" lon="2.0675402507"><ele>246.72</ele><time>2012-11-01T08:14:43Z</time></trkpt><trkpt lat="41.4100494795" lon="2.0673959143"><ele>242.87</ele><time>2012-11-01T08:14:46Z</time></trkpt><trkpt lat="41.4100966696" lon="2.0673551783"><ele>241.91</ele><time>2012-11-01T08:14:47Z</time></trkpt><trkpt lat="41.4102565963" lon="2.0672712754"><ele>238.54</ele><time>2012-11-01T08:14:50Z</time></trkpt><trkpt lat="41.4104566723" lon="2.0672668330"><ele>235.18</ele><time>2012-11-01T08:14:54Z</time></trkpt><trkpt lat="41.4106962271" lon="2.0673394203"><ele>230.85</ele><time>2012-11-01T08:14:58Z</time></trkpt><trkpt lat="41.4108285774" lon="2.0674079843"><ele>229.41</ele><time>2012-11-01T08:15:00Z</time></trkpt><trkpt lat="41.4110356942" lon="2.0675199665"><ele>225.09</ele><time>2012-11-01T08:15:04Z</time></trkpt><trkpt lat="41.4111224469" lon="2.0675699227"><ele>223.16</ele><time>2012-11-01T08:15:06Z</time></trkpt><trkpt lat="41.4112834632" lon="2.0675436873"><ele>218.36</ele><time>2012-11-01T08:15:10Z</time></trkpt><trkpt lat="41.4113177452" lon="2.0674898755"><ele>217.88</ele><time>2012-11-01T08:15:11Z</time></trkpt><trkpt lat="41.4114873111" lon="2.0672245882"><ele>212.59</ele><time>2012-11-01T08:15:16Z</time></trkpt><trkpt lat="41.4117031451" lon="2.0671599638"><ele>208.26</ele><time>2012-11-01T08:15:21Z</time></trkpt><trkpt lat="41.4119805861" lon="2.0673395880"><ele>204.90</ele><time>2012-11-01T08:15:28Z</time></trkpt><trkpt lat="41.4120245911" lon="2.0673788991"><ele>203.94</ele><time>2012-11-01T08:15:30Z</time></trkpt><trkpt lat="41.4120542631" lon="2.0674026199"><ele>203.94</ele><time>2012-11-01T08:15:34Z</time></trkpt><trkpt lat="41.4120769780" lon="2.0674132649"><ele>204.42</ele><time>2012-11-01T08:15:41Z</time></trkpt><trkpt lat="41.4120802470" lon="2.0673976745"><ele>204.42</ele><time>2012-11-01T08:15:46Z</time></trkpt><trkpt lat="41.4120233338" lon="2.0672633965"><ele>202.98</ele><time>2012-11-01T08:15:53Z</time></trkpt><trkpt lat="41.4120109286" lon="2.0672277734"><ele>202.98</ele><time>2012-11-01T08:15:54Z</time></trkpt><trkpt lat="41.4119609725" lon="2.0671154559"><ele>202.01</ele><time>2012-11-01T08:15:57Z</time></trkpt><trkpt lat="41.4118366688" lon="2.0669626538"><ele>201.05</ele><time>2012-11-01T08:16:01Z</time></trkpt><trkpt lat="41.4116482437" lon="2.0667434670"><ele>197.69</ele><time>2012-11-01T08:16:08Z</time></trkpt><trkpt lat="41.4115434699" lon="2.0666184928"><ele>193.36</ele><time>2012-11-01T08:16:11Z</time></trkpt><trkpt lat="41.4114571363" lon="2.0665398706"><ele>191.92</ele><time>2012-11-01T08:16:13Z</time></trkpt><trkpt lat="41.4112170786" lon="2.0663522836"><ele>187.59</ele><time>2012-11-01T08:16:18Z</time></trkpt><trkpt lat="41.4110164996" lon="2.0662424807"><ele>185.67</ele><time>2012-11-01T08:16:21Z</time></trkpt><trkpt lat="41.4107941277" lon="2.0661771856"><ele>184.23</ele><time>2012-11-01T08:16:24Z</time></trkpt><trkpt lat="41.4105425868" lon="2.0660566539"><ele>182.79</ele><time>2012-11-01T08:16:28Z</time></trkpt><trkpt lat="41.4102698397" lon="2.0660111401"><ele>179.42</ele><time>2012-11-01T08:16:33Z</time></trkpt><trkpt lat="41.4101155289" lon="2.0660425723"><ele>177.50</ele><time>2012-11-01T08:16:36Z</time></trkpt><trkpt lat="41.4100437798" lon="2.0660517085"><ele>176.54</ele><time>2012-11-01T08:16:39Z</time></trkpt><trkpt lat="41.4099185541" lon="2.0659826417"><ele>173.66</ele><time>2012-11-01T08:16:44Z</time></trkpt><trkpt lat="41.4097477309" lon="2.0658652112"><ele>172.69</ele><time>2012-11-01T08:16:48Z</time></trkpt><trkpt lat="41.4095467329" lon="2.0657046977"><ele>173.17</ele><time>2012-11-01T08:16:54Z</time></trkpt><trkpt lat="41.4095235988" lon="2.0657081343"><ele>173.17</ele><time>2012-11-01T08:16:55Z</time></trkpt><trkpt lat="41.4093663543" lon="2.0657564979"><ele>175.58</ele><time>2012-11-01T08:17:03Z</time></trkpt><trkpt lat="41.4093269594" lon="2.0657577552"><ele>175.58</ele><time>2012-11-01T08:17:05Z</time></trkpt><trkpt lat="41.4091739058" lon="2.0658580866"><ele>176.06</ele><time>2012-11-01T08:17:13Z</time></trkpt><trkpt lat="41.4090221934" lon="2.0659714099"><ele>177.50</ele><time>2012-11-01T08:17:22Z</time></trkpt><trkpt lat="41.4088950399" lon="2.0661241282"><ele>178.94</ele><time>2012-11-01T08:17:31Z</time></trkpt><trkpt lat="41.4087806270" lon="2.0663250424"><ele>180.38</ele><time>2012-11-01T08:17:41Z</time></trkpt><trkpt lat="41.4087061957" lon="2.0663650241"><ele>181.35</ele><time>2012-11-01T08:17:45Z</time></trkpt><trkpt lat="41.4085222967" lon="2.0662210230"><ele>181.83</ele><time>2012-11-01T08:17:55Z</time></trkpt><trkpt lat="41.4083534013" lon="2.0661050174"><ele>181.83</ele><time>2012-11-01T08:18:03Z</time></trkpt><trkpt lat="41.4081818238" lon="2.0659920294"><ele>181.35</ele><time>2012-11-01T08:18:10Z</time></trkpt><trkpt lat="41.4080747869" lon="2.0659319311"><ele>180.87</ele><time>2012-11-01T08:18:13Z</time></trkpt><trkpt lat="41.4076675940" lon="2.0657785423"><ele>179.90</ele><time>2012-11-01T08:18:22Z</time></trkpt><trkpt lat="41.4075043984" lon="2.0657704119"><ele>181.35</ele><time>2012-11-01T08:18:28Z</time></trkpt><trkpt lat="41.4073690306" lon="2.0659150835"><ele>181.35</ele><time>2012-11-01T08:18:35Z</time></trkpt><trkpt lat="41.4072201680" lon="2.0660638623"><ele>180.87</ele><time>2012-11-01T08:18:41Z</time></trkpt><trkpt lat="41.4070308208" lon="2.0659948792"><ele>181.83</ele><time>2012-11-01T08:18:48Z</time></trkpt><trkpt lat="41.4068137296" lon="2.0659120660"><ele>182.79</ele><time>2012-11-01T08:18:57Z</time></trkpt><trkpt lat="41.4065995719" lon="2.0659075398"><ele>183.27</ele><time>2012-11-01T08:19:06Z</time></trkpt><trkpt lat="41.4063839894" lon="2.0658854116"><ele>184.71</ele><time>2012-11-01T08:19:16Z</time></trkpt><trkpt lat="41.4061640482" lon="2.0657880139"><ele>185.19</ele><time>2012-11-01T08:19:25Z</time></trkpt><trkpt lat="41.4060011040" lon="2.0656933822"><ele>185.19</ele><time>2012-11-01T08:19:32Z</time></trkpt><trkpt lat="41.4059135970" lon="2.0656914543"><ele>185.67</ele><time>2012-11-01T08:19:36Z</time></trkpt><trkpt lat="41.4058612939" lon="2.0658588409"><ele>187.11</ele><time>2012-11-01T08:19:43Z</time></trkpt><trkpt lat="41.4059749525" lon="2.0661705639"><ele>189.04</ele><time>2012-11-01T08:19:55Z</time></trkpt><trkpt lat="41.4060847554" lon="2.0664283913"><ele>190.00</ele><time>2012-11-01T08:20:05Z</time></trkpt><trkpt lat="41.4061404951" lon="2.0667279605"><ele>189.04</ele><time>2012-11-01T08:20:13Z</time></trkpt><trkpt lat="41.4061358012" lon="2.0671111811"><ele>189.04</ele><time>2012-11-01T08:20:22Z</time></trkpt><trkpt lat="41.4061138406" lon="2.0673351455"><ele>188.56</ele><time>2012-11-01T08:20:28Z</time></trkpt><trkpt lat="41.4062377252" lon="2.0676348824"><ele>185.67</ele><time>2012-11-01T08:20:33Z</time></trkpt><trkpt lat="41.4063744340" lon="2.0677968208"><ele>184.23</ele><time>2012-11-01T08:20:36Z</time></trkpt><trkpt lat="41.4064460993" lon="2.0679168496"><ele>183.75</ele><time>2012-11-01T08:20:38Z</time></trkpt><trkpt lat="41.4064984024" lon="2.0681608468"><ele>182.31</ele><time>2012-11-01T08:20:41Z</time></trkpt><trkpt lat="41.4065796230" lon="2.0686470810"><ele>178.94</ele><time>2012-11-01T08:20:46Z</time></trkpt><trkpt lat="41.4064330235" lon="2.0691236760"><ele>177.50</ele><time>2012-11-01T08:20:51Z</time></trkpt><trkpt lat="41.4063286688" lon="2.0694588684"><ele>177.98</ele><time>2012-11-01T08:20:55Z</time></trkpt><trkpt lat="41.4063966461" lon="2.0698729344"><ele>179.90</ele><time>2012-11-01T08:21:02Z</time></trkpt><trkpt lat="41.4064729214" lon="2.0701251458"><ele>181.83</ele><time>2012-11-01T08:21:11Z</time></trkpt><trkpt lat="41.4065553155" lon="2.0702920295"><ele>183.27</ele><time>2012-11-01T08:21:18Z</time></trkpt><trkpt lat="41.4065404795" lon="2.0704641938"><ele>184.71</ele><time>2012-11-01T08:21:24Z</time></trkpt><trkpt lat="41.4065385517" lon="2.0704824664"><ele>185.19</ele><time>2012-11-01T08:21:25Z</time></trkpt><trkpt lat="41.4065369591" lon="2.0705691352"><ele>185.67</ele><time>2012-11-01T08:21:29Z</time></trkpt><trkpt lat="41.4065174293" lon="2.0708622504"><ele>186.15</ele><time>2012-11-01T08:21:39Z</time></trkpt><trkpt lat="41.4064958040" lon="2.0710819401"><ele>187.11</ele><time>2012-11-01T08:21:47Z</time></trkpt><trkpt lat="41.4064971451" lon="2.0713494904"><ele>188.56</ele><time>2012-11-01T08:21:58Z</time></trkpt><trkpt lat="41.4065349475" lon="2.0715299528"><ele>189.52</ele><time>2012-11-01T08:22:06Z</time></trkpt><trkpt lat="41.4066206943" lon="2.0717004407"><ele>190.48</ele><time>2012-11-01T08:22:15Z</time></trkpt><trkpt lat="41.4067321736" lon="2.0718641393"><ele>191.92</ele><time>2012-11-01T08:22:25Z</time></trkpt><trkpt lat="41.4068186749" lon="2.0720171090"><ele>193.84</ele><time>2012-11-01T08:22:35Z</time></trkpt><trkpt lat="41.4068219438" lon="2.0721546561"><ele>195.28</ele><time>2012-11-01T08:22:42Z</time></trkpt><trkpt lat="41.4067970496" lon="2.0723851584"><ele>197.21</ele><time>2012-11-01T08:22:53Z</time></trkpt><trkpt lat="41.4067900088" lon="2.0726085361"><ele>199.13</ele><time>2012-11-01T08:23:03Z</time></trkpt><trkpt lat="41.4067748375" lon="2.0727806166"><ele>200.09</ele><time>2012-11-01T08:23:11Z</time></trkpt><trkpt lat="41.4067811240" lon="2.0729214326"><ele>202.01</ele><time>2012-11-01T08:23:18Z</time></trkpt><trkpt lat="41.4067827165" lon="2.0729406271"><ele>202.01</ele><time>2012-11-01T08:23:19Z</time></trkpt><trkpt lat="41.4067782741" lon="2.0731598977"><ele>203.46</ele><time>2012-11-01T08:23:29Z</time></trkpt><trkpt lat="41.4067517035" lon="2.0733283740"><ele>204.42</ele><time>2012-11-01T08:23:37Z</time></trkpt><trkpt lat="41.4066697285" lon="2.0735042263"><ele>206.34</ele><time>2012-11-01T08:23:47Z</time></trkpt><trkpt lat="41.4065936208" lon="2.0736444555"><ele>207.30</ele><time>2012-11-01T08:23:55Z</time></trkpt><trkpt lat="41.4065348636" lon="2.0737734530"><ele>207.78</ele><time>2012-11-01T08:24:02Z</time></trkpt><trkpt lat="41.4064931218" lon="2.0739868563"><ele>208.74</ele><time>2012-11-01T08:24:11Z</time></trkpt><trkpt lat="41.4064963907" lon="2.0742044505"><ele>210.19</ele><time>2012-11-01T08:24:21Z</time></trkpt><trkpt lat="41.4065484423" lon="2.0743565820"><ele>212.11</ele><time>2012-11-01T08:24:29Z</time></trkpt><trkpt lat="41.4066072833" lon="2.0745117310"><ele>213.55</ele><time>2012-11-01T08:24:37Z</time></trkpt><trkpt lat="41.4066122286" lon="2.0745530538"><ele>214.03</ele><time>2012-11-01T08:24:39Z</time></trkpt><trkpt lat="41.4065658767" lon="2.0746042673"><ele>215.95</ele><time>2012-11-01T08:24:44Z</time></trkpt><trkpt lat="41.4064955525" lon="2.0745497011"><ele>217.40</ele><time>2012-11-01T08:24:50Z</time></trkpt><trkpt lat="41.4063854981" lon="2.0744401496"><ele>218.36</ele><time>2012-11-01T08:24:59Z</time></trkpt><trkpt lat="41.4063067082" lon="2.0742186997"><ele>220.28</ele><time>2012-11-01T08:25:10Z</time></trkpt><trkpt lat="41.4062500466" lon="2.0740576833"><ele>221.72</ele><time>2012-11-01T08:25:18Z</time></trkpt><trkpt lat="41.4062247332" lon="2.0738650672"><ele>223.16</ele><time>2012-11-01T08:25:25Z</time></trkpt><trkpt lat="41.4062832389" lon="2.0736806653"><ele>225.09</ele><time>2012-11-01T08:25:33Z</time></trkpt><trkpt lat="41.4062958118" lon="2.0734458882"><ele>226.53</ele><time>2012-11-01T08:25:42Z</time></trkpt><trkpt lat="41.4062656369" lon="2.0731439721"><ele>227.49</ele><time>2012-11-01T08:25:53Z</time></trkpt><trkpt lat="41.4062340371" lon="2.0729053393"><ele>228.93</ele><time>2012-11-01T08:26:02Z</time></trkpt><trkpt lat="41.4061734360" lon="2.0727005694"><ele>230.85</ele><time>2012-11-01T08:26:10Z</time></trkpt><trkpt lat="41.4061592706" lon="2.0726759266"><ele>230.85</ele><time>2012-11-01T08:26:11Z</time></trkpt><trkpt lat="41.4060819894" lon="2.0726107992"><ele>231.33</ele><time>2012-11-01T08:26:15Z</time></trkpt><trkpt lat="41.4059030358" lon="2.0725731645"><ele>232.78</ele><time>2012-11-01T08:26:24Z</time></trkpt><trkpt lat="41.4057196397" lon="2.0724954642"><ele>234.22</ele><time>2012-11-01T08:26:34Z</time></trkpt><trkpt lat="41.4056967571" lon="2.0723419078"><ele>236.14</ele><time>2012-11-01T08:26:40Z</time></trkpt><trkpt lat="41.4057252556" lon="2.0721300971"><ele>238.54</ele><time>2012-11-01T08:26:48Z</time></trkpt><trkpt lat="41.4056654088" lon="2.0719535742"><ele>239.51</ele><time>2012-11-01T08:26:55Z</time></trkpt><trkpt lat="41.4055717830" lon="2.0718142670"><ele>240.47</ele><time>2012-11-01T08:27:03Z</time></trkpt><trkpt lat="41.4055502415" lon="2.0716610458"><ele>241.91</ele><time>2012-11-01T08:27:10Z</time></trkpt><trkpt lat="41.4056109264" lon="2.0714912284"><ele>244.31</ele><time>2012-11-01T08:27:18Z</time></trkpt><trkpt lat="41.4056545123" lon="2.0713934116"><ele>245.27</ele><time>2012-11-01T08:27:23Z</time></trkpt><trkpt lat="41.4056247566" lon="2.0712162182"><ele>246.72</ele><time>2012-11-01T08:27:32Z</time></trkpt><trkpt lat="41.4055354055" lon="2.0711673517"><ele>247.68</ele><time>2012-11-01T08:27:39Z</time></trkpt><trkpt lat="41.4055228326" lon="2.0711624902"><ele>248.16</ele><time>2012-11-01T08:27:40Z</time></trkpt><trkpt lat="41.4054146223" lon="2.0711115282"><ele>247.68</ele><time>2012-11-01T08:27:49Z</time></trkpt><trkpt lat="41.4052857086" lon="2.0709104463"><ele>246.72</ele><time>2012-11-01T08:27:56Z</time></trkpt><trkpt lat="41.4051795099" lon="2.0707157347"><ele>245.27</ele><time>2012-11-01T08:28:02Z</time></trkpt><trkpt lat="41.4051689487" lon="2.0704218652"><ele>244.79</ele><time>2012-11-01T08:28:08Z</time></trkpt><trkpt lat="41.4051334932" lon="2.0701903570"><ele>245.75</ele><time>2012-11-01T08:28:16Z</time></trkpt><trkpt lat="41.4050813578" lon="2.0700243115"><ele>247.68</ele><time>2012-11-01T08:28:23Z</time></trkpt><trkpt lat="41.4049899951" lon="2.0698474534"><ele>247.68</ele><time>2012-11-01T08:28:31Z</time></trkpt><trkpt lat="41.4049775898" lon="2.0698232297"><ele>247.68</ele><time>2012-11-01T08:28:32Z</time></trkpt><trkpt lat="41.4049383625" lon="2.0697074756"><ele>247.68</ele><time>2012-11-01T08:28:36Z</time></trkpt><trkpt lat="41.4047889132" lon="2.0693552680"><ele>246.72</ele><time>2012-11-01T08:28:45Z</time></trkpt><trkpt lat="41.4046910126" lon="2.0692411903"><ele>246.72</ele><time>2012-11-01T08:28:51Z</time></trkpt><trkpt lat="41.4045289904" lon="2.0692123566"><ele>245.75</ele><time>2012-11-01T08:28:56Z</time></trkpt><trkpt lat="41.4043295011" lon="2.0691900607"><ele>245.75</ele><time>2012-11-01T08:29:02Z</time></trkpt><trkpt lat="41.4040601067" lon="2.0691244304"><ele>245.75</ele><time>2012-11-01T08:29:13Z</time></trkpt><trkpt lat="41.4038312808" lon="2.0691800024"><ele>245.75</ele><time>2012-11-01T08:29:20Z</time></trkpt><trkpt lat="41.4037279319" lon="2.0693086646"><ele>246.23</ele><time>2012-11-01T08:29:26Z</time></trkpt><trkpt lat="41.4036460407" lon="2.0694870315"><ele>247.68</ele><time>2012-11-01T08:29:33Z</time></trkpt><trkpt lat="41.4035474695" lon="2.0696877781"><ele>249.12</ele><time>2012-11-01T08:29:41Z</time></trkpt><trkpt lat="41.4034156222" lon="2.0699098147"><ele>250.56</ele><time>2012-11-01T08:29:51Z</time></trkpt><trkpt lat="41.4032805059" lon="2.0701892674"><ele>249.12</ele><time>2012-11-01T08:29:59Z</time></trkpt><trkpt lat="41.4032140374" lon="2.0704243798"><ele>250.08</ele><time>2012-11-01T08:30:06Z</time></trkpt><trkpt lat="41.4030725509" lon="2.0706070215"><ele>252.48</ele><time>2012-11-01T08:30:15Z</time></trkpt><trkpt lat="41.4029256999" lon="2.0708604902"><ele>254.41</ele><time>2012-11-01T08:30:26Z</time></trkpt><trkpt lat="41.4027850516" lon="2.0711417031"><ele>255.37</ele><time>2012-11-01T08:30:36Z</time></trkpt><trkpt lat="41.4026556350" lon="2.0712763164"><ele>255.37</ele><time>2012-11-01T08:30:42Z</time></trkpt><trkpt lat="41.4024919365" lon="2.0712315571"><ele>256.81</ele><time>2012-11-01T08:30:49Z</time></trkpt><trkpt lat="41.4023576584" lon="2.0710041560"><ele>258.25</ele><time>2012-11-01T08:30:59Z</time></trkpt><trkpt lat="41.4022651222" lon="2.0710637514"><ele>257.77</ele><time>2012-11-01T08:31:03Z</time></trkpt><trkpt lat="41.4022610150" lon="2.0711515099"><ele>257.77</ele><time>2012-11-01T08:31:05Z</time></trkpt><trkpt lat="41.4022439159" lon="2.0714997780"><ele>258.73</ele><time>2012-11-01T08:31:16Z</time></trkpt><trkpt lat="41.4021633659" lon="2.0716660749"><ele>259.21</ele><time>2012-11-01T08:31:22Z</time></trkpt><trkpt lat="41.4020626992" lon="2.0718576014"><ele>260.65</ele><time>2012-11-01T08:31:30Z</time></trkpt><trkpt lat="41.4020339493" lon="2.0721533149"><ele>261.62</ele><time>2012-11-01T08:31:39Z</time></trkpt><trkpt lat="41.4020339493" lon="2.0724518783"><ele>262.58</ele><time>2012-11-01T08:31:48Z</time></trkpt><trkpt lat="41.4020595141" lon="2.0727732405"><ele>263.06</ele><time>2012-11-01T08:31:57Z</time></trkpt><trkpt lat="41.4020637888" lon="2.0728601608"><ele>262.58</ele><time>2012-11-01T08:31:59Z</time></trkpt><trkpt lat="41.4019497111" lon="2.0730213448"><ele>262.58</ele><time>2012-11-01T08:32:04Z</time></trkpt><trkpt lat="41.4019306004" lon="2.0730386954"><ele>263.06</ele><time>2012-11-01T08:32:05Z</time></trkpt><trkpt lat="41.4018276706" lon="2.0731249452"><ele>261.62</ele><time>2012-11-01T08:32:09Z</time></trkpt><trkpt lat="41.4015923906" lon="2.0731000509"><ele>258.25</ele><time>2012-11-01T08:32:14Z</time></trkpt><trkpt lat="41.4013842680" lon="2.0729122963"><ele>253.93</ele><time>2012-11-01T08:32:18Z</time></trkpt><trkpt lat="41.4012008719" lon="2.0728496835"><ele>250.08</ele><time>2012-11-01T08:32:21Z</time></trkpt><trkpt lat="41.4011313859" lon="2.0728514437"><ele>248.64</ele><time>2012-11-01T08:32:22Z</time></trkpt><trkpt lat="41.4009990357" lon="2.0728582330"><ele>246.72</ele><time>2012-11-01T08:32:24Z</time></trkpt><trkpt lat="41.4008213393" lon="2.0729158167"><ele>244.31</ele><time>2012-11-01T08:32:27Z</time></trkpt><trkpt lat="41.4006828703" lon="2.0729889907"><ele>241.91</ele><time>2012-11-01T08:32:30Z</time></trkpt><trkpt lat="41.4004686289" lon="2.0732919965"><ele>238.06</ele><time>2012-11-01T08:32:35Z</time></trkpt><trkpt lat="41.4004433993" lon="2.0733879693"><ele>238.06</ele><time>2012-11-01T08:32:36Z</time></trkpt><trkpt lat="41.4004724845" lon="2.0738120936"><ele>236.62</ele><time>2012-11-01T08:32:40Z</time></trkpt><trkpt lat="41.4005351812" lon="2.0739930589"><ele>236.62</ele><time>2012-11-01T08:32:42Z</time></trkpt><trkpt lat="41.4007235225" lon="2.0744263195"><ele>239.02</ele><time>2012-11-01T08:32:49Z</time></trkpt><trkpt lat="41.4007797651" lon="2.0746149961"><ele>239.99</ele><time>2012-11-01T08:32:55Z</time></trkpt><trkpt lat="41.4008743968" lon="2.0749388728"><ele>241.43</ele><time>2012-11-01T08:33:05Z</time></trkpt><trkpt lat="41.4008753188" lon="2.0752540324"><ele>243.83</ele><time>2012-11-01T08:33:14Z</time></trkpt><trkpt lat="41.4008521847" lon="2.0755882189"><ele>245.75</ele><time>2012-11-01T08:33:23Z</time></trkpt><trkpt lat="41.4009024762" lon="2.0759156160"><ele>246.23</ele><time>2012-11-01T08:33:32Z</time></trkpt><trkpt lat="41.4009707887" lon="2.0761564281"><ele>247.68</ele><time>2012-11-01T08:33:40Z</time></trkpt><trkpt lat="41.4010482375" lon="2.0763312746"><ele>247.68</ele><time>2012-11-01T08:33:46Z</time></trkpt><trkpt lat="41.4010024723" lon="2.0764532313"><ele>248.16</ele><time>2012-11-01T08:33:51Z</time></trkpt><trkpt lat="41.4008024801" lon="2.0764735993"><ele>246.72</ele><time>2012-11-01T08:33:58Z</time></trkpt><trkpt lat="41.4006245323" lon="2.0764018502"><ele>245.75</ele><time>2012-11-01T08:34:04Z</time></trkpt><trkpt lat="41.4003646933" lon="2.0762194600"><ele>243.35</ele><time>2012-11-01T08:34:12Z</time></trkpt><trkpt lat="41.4002650324" lon="2.0760851819"><ele>242.87</ele><time>2012-11-01T08:34:16Z</time></trkpt><trkpt lat="41.4001308382" lon="2.0760537498"><ele>244.31</ele><time>2012-11-01T08:34:21Z</time></trkpt><trkpt lat="41.4000998251" lon="2.0761358086"><ele>245.75</ele><time>2012-11-01T08:34:25Z</time></trkpt><trkpt lat="41.4001705684" lon="2.0763283409"><ele>248.64</ele><time>2012-11-01T08:34:34Z</time></trkpt><trkpt lat="41.4002844784" lon="2.0764579251"><ele>252.00</ele><time>2012-11-01T08:34:42Z</time></trkpt><trkpt lat="41.4003251307" lon="2.0765221305"><ele>253.44</ele><time>2012-11-01T08:34:45Z</time></trkpt><trkpt lat="41.4004527871" lon="2.0766901039"><ele>256.33</ele><time>2012-11-01T08:34:54Z</time></trkpt><trkpt lat="41.4005785156" lon="2.0768098813"><ele>259.69</ele><time>2012-11-01T08:35:03Z</time></trkpt><trkpt lat="41.4006694593" lon="2.0768667106"><ele>260.65</ele><time>2012-11-01T08:35:10Z</time></trkpt><trkpt lat="41.4007844590" lon="2.0769672934"><ele>262.10</ele><time>2012-11-01T08:35:19Z</time></trkpt><trkpt lat="41.4009381831" lon="2.0770838857"><ele>264.02</ele><time>2012-11-01T08:35:30Z</time></trkpt><trkpt lat="41.4010608941" lon="2.0771474205"><ele>264.50</ele><time>2012-11-01T08:35:38Z</time></trkpt><trkpt lat="41.4011360798" lon="2.0773797669"><ele>265.94</ele><time>2012-11-01T08:35:49Z</time></trkpt><trkpt lat="41.4011887182" lon="2.0775101893"><ele>266.90</ele><time>2012-11-01T08:35:56Z</time></trkpt><trkpt lat="41.4012858644" lon="2.0777231734"><ele>266.90</ele><time>2012-11-01T08:36:05Z</time></trkpt><trkpt lat="41.4013827592" lon="2.0780016202"><ele>265.94</ele><time>2012-11-01T08:36:12Z</time></trkpt><trkpt lat="41.4014017023" lon="2.0782212261"><ele>266.42</ele><time>2012-11-01T08:36:18Z</time></trkpt><trkpt lat="41.4013904706" lon="2.0785724279"><ele>266.90</ele><time>2012-11-01T08:36:29Z</time></trkpt><trkpt lat="41.4014162030" lon="2.0787916984"><ele>268.35</ele><time>2012-11-01T08:36:38Z</time></trkpt><trkpt lat="41.4014977589" lon="2.0789877512"><ele>269.79</ele><time>2012-11-01T08:36:46Z</time></trkpt><trkpt lat="41.4016666543" lon="2.0792294014"><ele>270.75</ele><time>2012-11-01T08:36:56Z</time></trkpt><trkpt lat="41.4018091466" lon="2.0793319959"><ele>270.27</ele><time>2012-11-01T08:37:02Z</time></trkpt><trkpt lat="41.4018651377" lon="2.0793627575"><ele>269.79</ele><time>2012-11-01T08:37:04Z</time></trkpt><trkpt lat="41.4019331150" lon="2.0795802679"><ele>267.86</ele><time>2012-11-01T08:37:08Z</time></trkpt><trkpt lat="41.4018854219" lon="2.0797667652"><ele>267.38</ele><time>2012-11-01T08:37:11Z</time></trkpt><trkpt lat="41.4017850906" lon="2.0800971799"><ele>265.46</ele><time>2012-11-01T08:37:17Z</time></trkpt><trkpt lat="41.4017853420" lon="2.0803461224"><ele>264.50</ele><time>2012-11-01T08:37:22Z</time></trkpt><trkpt lat="41.4017830789" lon="2.0804000180"><ele>264.02</ele><time>2012-11-01T08:37:23Z</time></trkpt><trkpt lat="41.4017425943" lon="2.0805694163"><ele>262.10</ele><time>2012-11-01T08:37:27Z</time></trkpt><trkpt lat="41.4016612060" lon="2.0807627030"><ele>259.21</ele><time>2012-11-01T08:37:32Z</time></trkpt><trkpt lat="41.4016187936" lon="2.0810304210"><ele>256.33</ele><time>2012-11-01T08:37:37Z</time></trkpt><trkpt lat="41.4016337972" lon="2.0811380446"><ele>254.89</ele><time>2012-11-01T08:37:39Z</time></trkpt><trkpt lat="41.4016312826" lon="2.0813662838"><ele>252.00</ele><time>2012-11-01T08:37:43Z</time></trkpt><trkpt lat="41.4015477151" lon="2.0816781744"><ele>247.68</ele><time>2012-11-01T08:37:48Z</time></trkpt><trkpt lat="41.4014598727" lon="2.0820792485"><ele>243.35</ele><time>2012-11-01T08:37:53Z</time></trkpt><trkpt lat="41.4014368225" lon="2.0823011175"><ele>241.43</ele><time>2012-11-01T08:37:56Z</time></trkpt><trkpt lat="41.4014347270" lon="2.0824914705"><ele>239.51</ele><time>2012-11-01T08:37:59Z</time></trkpt><trkpt lat="41.4013006166" lon="2.0825622138"><ele>236.62</ele><time>2012-11-01T08:38:03Z</time></trkpt><trkpt lat="41.4012245927" lon="2.0823740400"><ele>233.26</ele><time>2012-11-01T08:38:06Z</time></trkpt><trkpt lat="41.4011892211" lon="2.0820554439"><ele>229.41</ele><time>2012-11-01T08:38:10Z</time></trkpt><trkpt lat="41.4011126105" lon="2.0817245264"><ele>224.61</ele><time>2012-11-01T08:38:14Z</time></trkpt><trkpt lat="41.4010909852" lon="2.0816589799"><ele>224.12</ele><time>2012-11-01T08:38:15Z</time></trkpt><trkpt lat="41.4009346627" lon="2.0814965386"><ele>220.76</ele><time>2012-11-01T08:38:19Z</time></trkpt><trkpt lat="41.4007421304" lon="2.0814531203"><ele>217.88</ele><time>2012-11-01T08:38:22Z</time></trkpt><trkpt lat="41.4004881587" lon="2.0814076904"><ele>214.03</ele><time>2012-11-01T08:38:26Z</time></trkpt><trkpt lat="41.4003760926" lon="2.0813061856"><ele>212.11</ele><time>2012-11-01T08:38:28Z</time></trkpt><trkpt lat="41.4001253061" lon="2.0811466780"><ele>206.82</ele><time>2012-11-01T08:38:33Z</time></trkpt><trkpt lat="41.4000209514" lon="2.0812672097"><ele>204.90</ele><time>2012-11-01T08:38:36Z</time></trkpt><trkpt lat="41.3999696542" lon="2.0814103726"><ele>202.49</ele><time>2012-11-01T08:38:38Z</time></trkpt><trkpt lat="41.3997583464" lon="2.0816830359"><ele>197.21</ele><time>2012-11-01T08:38:43Z</time></trkpt><trkpt lat="41.3994918019" lon="2.0816842094"><ele>193.84</ele><time>2012-11-01T08:38:47Z</time></trkpt><trkpt lat="41.3993689232" lon="2.0816091076"><ele>192.40</ele><time>2012-11-01T08:38:49Z</time></trkpt><trkpt lat="41.3992626406" lon="2.0815304853"><ele>190.96</ele><time>2012-11-01T08:38:51Z</time></trkpt><trkpt lat="41.3989881333" lon="2.0814838819"><ele>186.15</ele><time>2012-11-01T08:38:56Z</time></trkpt><trkpt lat="41.3988518436" lon="2.0817613229"><ele>182.31</ele><time>2012-11-01T08:39:00Z</time></trkpt><trkpt lat="41.3989022188" lon="2.0820548572"><ele>180.38</ele><time>2012-11-01T08:39:04Z</time></trkpt><trkpt lat="41.3989696931" lon="2.0821963437"><ele>178.94</ele><time>2012-11-01T08:39:06Z</time></trkpt><trkpt lat="41.3991597109" lon="2.0825192984"><ele>176.06</ele><time>2012-11-01T08:39:11Z</time></trkpt><trkpt lat="41.3991504908" lon="2.0827715099"><ele>174.62</ele><time>2012-11-01T08:39:15Z</time></trkpt><trkpt lat="41.3990732934" lon="2.0829457697"><ele>174.14</ele><time>2012-11-01T08:39:19Z</time></trkpt><trkpt lat="41.3990429509" lon="2.0831294172"><ele>172.21</ele><time>2012-11-01T08:39:23Z</time></trkpt><trkpt lat="41.3987804297" lon="2.0834263042"><ele>169.33</ele><time>2012-11-01T08:39:30Z</time></trkpt><trkpt lat="41.3986008056" lon="2.0835391246"><ele>168.37</ele><time>2012-11-01T08:39:34Z</time></trkpt><trkpt lat="41.3984925114" lon="2.0836276375"><ele>166.93</ele><time>2012-11-01T08:39:37Z</time></trkpt><trkpt lat="41.3982038386" lon="2.0838057529"><ele>165.48</ele><time>2012-11-01T08:39:44Z</time></trkpt><trkpt lat="41.3980114739" lon="2.0838662703"><ele>164.04</ele><time>2012-11-01T08:39:49Z</time></trkpt><trkpt lat="41.3978580851" lon="2.0840038173"><ele>162.12</ele><time>2012-11-01T08:39:54Z</time></trkpt><trkpt lat="41.3978539780" lon="2.0841248520"><ele>161.16</ele><time>2012-11-01T08:39:56Z</time></trkpt><trkpt lat="41.3978551514" lon="2.0843112655"><ele>160.20</ele><time>2012-11-01T08:39:59Z</time></trkpt><trkpt lat="41.3978385553" lon="2.0845711883"><ele>157.79</ele><time>2012-11-01T08:40:03Z</time></trkpt><trkpt lat="41.3977508806" lon="2.0846709330"><ele>156.35</ele><time>2012-11-01T08:40:07Z</time></trkpt><trkpt lat="41.3976688217" lon="2.0844924822"><ele>154.91</ele><time>2012-11-01T08:40:11Z</time></trkpt><trkpt lat="41.3976568356" lon="2.0844255108"><ele>154.43</ele><time>2012-11-01T08:40:12Z</time></trkpt><trkpt lat="41.3976143394" lon="2.0842149574"><ele>152.99</ele><time>2012-11-01T08:40:15Z</time></trkpt><trkpt lat="41.3976012636" lon="2.0840689447"><ele>152.51</ele><time>2012-11-01T08:40:17Z</time></trkpt><trkpt lat="41.3974832464" lon="2.0837118756"><ele>151.06</ele><time>2012-11-01T08:40:23Z</time></trkpt><trkpt lat="41.3973912969" lon="2.0836477540"><ele>150.58</ele><time>2012-11-01T08:40:25Z</time></trkpt><trkpt lat="41.3972942345" lon="2.0835901704"><ele>149.14</ele><time>2012-11-01T08:40:27Z</time></trkpt><trkpt lat="41.3970241696" lon="2.0832856558"><ele>146.26</ele><time>2012-11-01T08:40:33Z</time></trkpt><trkpt lat="41.3967669290" lon="2.0828742720"><ele>143.85</ele><time>2012-11-01T08:40:40Z</time></trkpt><trkpt lat="41.3965874724" lon="2.0826678257"><ele>142.89</ele><time>2012-11-01T08:40:45Z</time></trkpt><trkpt lat="41.3964324072" lon="2.0825681649"><ele>140.97</ele><time>2012-11-01T08:40:49Z</time></trkpt><trkpt lat="41.3963077683" lon="2.0825015288"><ele>139.53</ele><time>2012-11-01T08:40:52Z</time></trkpt><trkpt lat="41.3961032499" lon="2.0823825058"><ele>137.13</ele><time>2012-11-01T08:40:56Z</time></trkpt><trkpt lat="41.3959781919" lon="2.0823517442"><ele>136.16</ele><time>2012-11-01T08:40:58Z</time></trkpt><trkpt lat="41.3959113043" lon="2.0823546778"><ele>135.68</ele><time>2012-11-01T08:40:59Z</time></trkpt><trkpt lat="41.3955793809" lon="2.0822057314"><ele>133.76</ele><time>2012-11-01T08:41:04Z</time></trkpt><trkpt lat="41.3953775447" lon="2.0820867084"><ele>131.84</ele><time>2012-11-01T08:41:07Z</time></trkpt><trkpt lat="41.3952570129" lon="2.0820088405"><ele>131.36</ele><time>2012-11-01T08:41:09Z</time></trkpt><trkpt lat="41.3951610401" lon="2.0817618258"><ele>129.92</ele><time>2012-11-01T08:41:13Z</time></trkpt><trkpt lat="41.3951768819" lon="2.0816881489"><ele>129.43</ele><time>2012-11-01T08:41:14Z</time></trkpt><trkpt lat="41.3952441886" lon="2.0814361051"><ele>127.99</ele><time>2012-11-01T08:41:17Z</time></trkpt><trkpt lat="41.3952722680" lon="2.0810730848"><ele>126.55</ele><time>2012-11-01T08:41:21Z</time></trkpt><trkpt lat="41.3951748703" lon="2.0804424305"><ele>124.63</ele><time>2012-11-01T08:41:28Z</time></trkpt><trkpt lat="41.3950458728" lon="2.0802005287"><ele>123.67</ele><time>2012-11-01T08:41:31Z</time></trkpt><trkpt lat="41.3949695975" lon="2.0800186414"><ele>123.19</ele><time>2012-11-01T08:41:33Z</time></trkpt><trkpt lat="41.3946745545" lon="2.0797406137"><ele>121.74</ele><time>2012-11-01T08:41:38Z</time></trkpt><trkpt lat="41.3946035597" lon="2.0797345787"><ele>121.26</ele><time>2012-11-01T08:41:39Z</time></trkpt><trkpt lat="41.3944603968" lon="2.0797296334"><ele>120.30</ele><time>2012-11-01T08:41:41Z</time></trkpt><trkpt lat="41.3942044973" lon="2.0795477461"><ele>118.86</ele><time>2012-11-01T08:41:45Z</time></trkpt><trkpt lat="41.3941672817" lon="2.0794574730"><ele>118.86</ele><time>2012-11-01T08:41:46Z</time></trkpt><trkpt lat="41.3939542975" lon="2.0789042674"><ele>117.90</ele><time>2012-11-01T08:41:53Z</time></trkpt><trkpt lat="41.3939123042" lon="2.0788369607"><ele>117.42</ele><time>2012-11-01T08:41:54Z</time></trkpt><trkpt lat="41.3936646190" lon="2.0787680615"><ele>116.46</ele><time>2012-11-01T08:41:58Z</time></trkpt><trkpt lat="41.3934756909" lon="2.0787849929"><ele>115.98</ele><time>2012-11-01T08:42:01Z</time></trkpt><trkpt lat="41.3934260700" lon="2.0787476096"><ele>116.46</ele><time>2012-11-01T08:42:02Z</time></trkpt><trkpt lat="41.3933446817" lon="2.0786736812"><ele>116.94</ele><time>2012-11-01T08:42:04Z</time></trkpt><trkpt lat="41.3930280134" lon="2.0783549175"><ele>117.90</ele><time>2012-11-01T08:42:14Z</time></trkpt><trkpt lat="41.3927153684" lon="2.0780435298"><ele>118.38</ele><time>2012-11-01T08:42:24Z</time></trkpt><trkpt lat="41.3924336527" lon="2.0777455531"><ele>116.94</ele><time>2012-11-01T08:42:33Z</time></trkpt><trkpt lat="41.3921330776" lon="2.0774444751"><ele>115.50</ele><time>2012-11-01T08:42:40Z</time></trkpt><trkpt lat="41.3918892480" lon="2.0772252884"><ele>114.05</ele><time>2012-11-01T08:42:45Z</time></trkpt><trkpt lat="41.3915460929" lon="2.0771001466"><ele>112.61</ele><time>2012-11-01T08:42:51Z</time></trkpt><trkpt lat="41.3909788057" lon="2.0767794549"><ele>109.73</ele><time>2012-11-01T08:43:01Z</time></trkpt><trkpt lat="41.3905793242" lon="2.0764128305"><ele>108.29</ele><time>2012-11-01T08:43:09Z</time></trkpt><trkpt lat="41.3902537711" lon="2.0760986768"><ele>106.36</ele><time>2012-11-01T08:43:16Z</time></trkpt><trkpt lat="41.3900826126" lon="2.0758976787"><ele>105.40</ele><time>2012-11-01T08:43:20Z</time></trkpt><trkpt lat="41.3897970412" lon="2.0758077409"><ele>103.48</ele><time>2012-11-01T08:43:25Z</time></trkpt><trkpt lat="41.3897368591" lon="2.0758404303"><ele>103.00</ele><time>2012-11-01T08:43:26Z</time></trkpt><trkpt lat="41.3894305006" lon="2.0760363992"><ele>102.04</ele><time>2012-11-01T08:43:31Z</time></trkpt><trkpt lat="41.3890817296" lon="2.0760967489"><ele>100.11</ele><time>2012-11-01T08:43:36Z</time></trkpt><trkpt lat="41.3888001814" lon="2.0758971758"><ele>101.56</ele><time>2012-11-01T08:43:41Z</time></trkpt><trkpt lat="41.3885108382" lon="2.0755973551"><ele>103.00</ele><time>2012-11-01T08:43:50Z</time></trkpt><trkpt lat="41.3882706128" lon="2.0753013901"><ele>104.44</ele><time>2012-11-01T08:43:59Z</time></trkpt><trkpt lat="41.3881199062" lon="2.0749283116"><ele>105.88</ele><time>2012-11-01T08:44:08Z</time></trkpt><trkpt lat="41.3879272062" lon="2.0745906048"><ele>106.36</ele><time>2012-11-01T08:44:17Z</time></trkpt><trkpt lat="41.3878353406" lon="2.0744709950"><ele>106.36</ele><time>2012-11-01T08:44:20Z</time></trkpt><trkpt lat="41.3875694666" lon="2.0741832443"><ele>105.88</ele><time>2012-11-01T08:44:28Z</time></trkpt><trkpt lat="41.3874963764" lon="2.0741176140"><ele>105.88</ele><time>2012-11-01T08:44:30Z</time></trkpt><trkpt lat="41.3871813007" lon="2.0737526659"><ele>104.92</ele><time>2012-11-01T08:44:39Z</time></trkpt><trkpt lat="41.3871111441" lon="2.0736692660"><ele>104.92</ele><time>2012-11-01T08:44:41Z</time></trkpt><trkpt lat="41.3869173545" lon="2.0733758993"><ele>104.44</ele><time>2012-11-01T08:44:48Z</time></trkpt><trkpt lat="41.3868586812" lon="2.0732752327"><ele>104.44</ele><time>2012-11-01T08:44:54Z</time></trkpt><trkpt lat="41.3867105730" lon="2.0732424594"><ele>104.92</ele><time>2012-11-01T08:44:59Z</time></trkpt><trkpt lat="41.3864907995" lon="2.0733764861"><ele>106.84</ele><time>2012-11-01T08:45:07Z</time></trkpt><trkpt lat="41.3861635700" lon="2.0734675135"><ele>108.29</ele><time>2012-11-01T08:45:16Z</time></trkpt><trkpt lat="41.3858195767" lon="2.0735617261"><ele>109.25</ele><time>2012-11-01T08:45:25Z</time></trkpt><trkpt lat="41.3855747413" lon="2.0736207347"><ele>109.25</ele><time>2012-11-01T08:45:32Z</time></trkpt><trkpt lat="41.3854972925" lon="2.0736028813"><ele>108.77</ele><time>2012-11-01T08:45:34Z</time></trkpt><trkpt lat="41.3854100369" lon="2.0735893026"><ele>108.77</ele><time>2012-11-01T08:45:36Z</time></trkpt><trkpt lat="41.3851406425" lon="2.0736745466"><ele>109.25</ele><time>2012-11-01T08:45:43Z</time></trkpt><trkpt lat="41.3849282451" lon="2.0736862812"><ele>108.77</ele><time>2012-11-01T08:45:50Z</time></trkpt><trkpt lat="41.3847085554" lon="2.0736927353"><ele>108.77</ele><time>2012-11-01T08:45:55Z</time></trkpt><trkpt lat="41.3845127542" lon="2.0737136900"><ele>108.77</ele><time>2012-11-01T08:45:59Z</time></trkpt><trkpt lat="41.3843186293" lon="2.0736966748"><ele>108.29</ele><time>2012-11-01T08:46:03Z</time></trkpt><trkpt lat="41.3840749674" lon="2.0736754686"><ele>107.81</ele><time>2012-11-01T08:46:09Z</time></trkpt><trkpt lat="41.3836725522" lon="2.0736605488"><ele>106.84</ele><time>2012-11-01T08:46:17Z</time></trkpt><trkpt lat="41.3833091967" lon="2.0737872832"><ele>107.32</ele><time>2012-11-01T08:46:25Z</time></trkpt><trkpt lat="41.3828981481" lon="2.0740018599"><ele>108.77</ele><time>2012-11-01T08:46:35Z</time></trkpt><trkpt lat="41.3825386483" lon="2.0742102340"><ele>109.25</ele><time>2012-11-01T08:46:43Z</time></trkpt><trkpt lat="41.3821727782" lon="2.0743994135"><ele>109.25</ele><time>2012-11-01T08:46:51Z</time></trkpt><trkpt lat="41.3820592035" lon="2.0744555723"><ele>108.77</ele><time>2012-11-01T08:46:57Z</time></trkpt><trkpt lat="41.3820505701" lon="2.0744696539"><ele>109.25</ele><time>2012-11-01T08:47:04Z</time></trkpt><trkpt lat="41.3820398413" lon="2.0744754374"><ele>109.25</ele><time>2012-11-01T08:47:17Z</time></trkpt><trkpt lat="41.3819408510" lon="2.0745191071"><ele>109.25</ele><time>2012-11-01T08:47:24Z</time></trkpt><trkpt lat="41.3816835266" lon="2.0746460930"><ele>109.73</ele><time>2012-11-01T08:47:32Z</time></trkpt><trkpt lat="41.3813696243" lon="2.0748004876"><ele>109.73</ele><time>2012-11-01T08:47:40Z</time></trkpt><trkpt lat="41.3810341805" lon="2.0749681257"><ele>109.73</ele><time>2012-11-01T08:47:48Z</time></trkpt><trkpt lat="41.3805969805" lon="2.0751809422"><ele>110.21</ele><time>2012-11-01T08:47:58Z</time></trkpt><trkpt lat="41.3800590299" lon="2.0754425414"><ele>109.73</ele><time>2012-11-01T08:48:09Z</time></trkpt><trkpt lat="41.3796629850" lon="2.0756350737"><ele>109.73</ele><time>2012-11-01T08:48:17Z</time></trkpt><trkpt lat="41.3792457338" lon="2.0758355688"><ele>109.25</ele><time>2012-11-01T08:48:26Z</time></trkpt><trkpt lat="41.3788509462" lon="2.0760327950"><ele>107.81</ele><time>2012-11-01T08:48:33Z</time></trkpt><trkpt lat="41.3782155979" lon="2.0763514750"><ele>105.40</ele><time>2012-11-01T08:48:43Z</time></trkpt><trkpt lat="41.3777373265" lon="2.0765699912"><ele>102.04</ele><time>2012-11-01T08:48:49Z</time></trkpt><trkpt lat="41.3773595542" lon="2.0767544769"><ele>98.67</ele><time>2012-11-01T08:48:53Z</time></trkpt><trkpt lat="41.3770392817" lon="2.0769133978"><ele>94.83</ele><time>2012-11-01T08:48:56Z</time></trkpt><trkpt lat="41.3766935281" lon="2.0770633500"><ele>91.46</ele><time>2012-11-01T08:48:59Z</time></trkpt><trkpt lat="41.3762533944" lon="2.0772622526"><ele>90.98</ele><time>2012-11-01T08:49:03Z</time></trkpt><trkpt lat="41.3760296814" lon="2.0772059262"><ele>90.50</ele><time>2012-11-01T08:49:07Z</time></trkpt><trkpt lat="41.3757769670" lon="2.0770052634"><ele>90.02</ele><time>2012-11-01T08:49:12Z</time></trkpt><trkpt lat="41.3755706046" lon="2.0768759307"><ele>90.02</ele><time>2012-11-01T08:49:17Z</time></trkpt><trkpt lat="41.3755512424" lon="2.0768133178"><ele>89.54</ele><time>2012-11-01T08:49:18Z</time></trkpt><trkpt lat="41.3754235860" lon="2.0764279179"><ele>88.58</ele><time>2012-11-01T08:49:24Z</time></trkpt><trkpt lat="41.3751720451" lon="2.0761881955"><ele>87.62</ele><time>2012-11-01T08:49:30Z</time></trkpt><trkpt lat="41.3746191747" lon="2.0759649854"><ele>85.69</ele><time>2012-11-01T08:49:40Z</time></trkpt><trkpt lat="41.3741334435" lon="2.0757665019"><ele>84.73</ele><time>2012-11-01T08:49:49Z</time></trkpt><trkpt lat="41.3738245703" lon="2.0755622350"><ele>83.77</ele><time>2012-11-01T08:49:55Z</time></trkpt><trkpt lat="41.3736017793" lon="2.0753664337"><ele>83.29</ele><time>2012-11-01T08:50:00Z</time></trkpt><trkpt lat="41.3733702712" lon="2.0751003921"><ele>83.29</ele><time>2012-11-01T08:50:07Z</time></trkpt><trkpt lat="41.3731859531" lon="2.0749796927"><ele>83.29</ele><time>2012-11-01T08:50:13Z</time></trkpt><trkpt lat="41.3729096856" lon="2.0750382822"><ele>82.33</ele><time>2012-11-01T08:50:19Z</time></trkpt><trkpt lat="41.3725253753" lon="2.0756193995"><ele>81.37</ele><time>2012-11-01T08:50:30Z</time></trkpt><trkpt lat="41.3722589146" lon="2.0760477986"><ele>81.37</ele><time>2012-11-01T08:50:38Z</time></trkpt><trkpt lat="41.3720758539" lon="2.0764015149"><ele>80.89</ele><time>2012-11-01T08:50:44Z</time></trkpt><trkpt lat="41.3718260732" lon="2.0765709132"><ele>80.89</ele><time>2012-11-01T08:50:50Z</time></trkpt><trkpt lat="41.3717824873" lon="2.0765402354"><ele>80.41</ele><time>2012-11-01T08:50:51Z</time></trkpt><trkpt lat="41.3715394121" lon="2.0765076298"><ele>79.93</ele><time>2012-11-01T08:50:56Z</time></trkpt><trkpt lat="41.3714615442" lon="2.0767030120"><ele>79.93</ele><time>2012-11-01T08:50:59Z</time></trkpt><trkpt lat="41.3714351412" lon="2.0768492762"><ele>79.45</ele><time>2012-11-01T08:51:01Z</time></trkpt><trkpt lat="41.3713234104" lon="2.0771060139"><ele>79.45</ele><time>2012-11-01T08:51:05Z</time></trkpt><trkpt lat="41.3707795925" lon="2.0778108481"><ele>78.48</ele><time>2012-11-01T08:51:17Z</time></trkpt><trkpt lat="41.3702936936" lon="2.0782958250"><ele>77.52</ele><time>2012-11-01T08:51:26Z</time></trkpt><trkpt lat="41.3697629515" lon="2.0789148286"><ele>75.60</ele><time>2012-11-01T08:51:36Z</time></trkpt><trkpt lat="41.3697103132" lon="2.0789850689"><ele>75.12</ele><time>2012-11-01T08:51:37Z</time></trkpt><trkpt lat="41.3692644797" lon="2.0793712232"><ele>74.16</ele><time>2012-11-01T08:51:44Z</time></trkpt><trkpt lat="41.3689036388" lon="2.0796058327"><ele>72.72</ele><time>2012-11-01T08:51:50Z</time></trkpt><trkpt lat="41.3688541856" lon="2.0796262845"><ele>72.72</ele><time>2012-11-01T08:51:52Z</time></trkpt><trkpt lat="41.3686840329" lon="2.0795229357"><ele>72.24</ele><time>2012-11-01T08:51:58Z</time></trkpt><trkpt lat="41.3684028201" lon="2.0795619953"><ele>71.27</ele><time>2012-11-01T08:52:03Z</time></trkpt><trkpt lat="41.3682604954" lon="2.0798262767"><ele>70.79</ele><time>2012-11-01T08:52:07Z</time></trkpt><trkpt lat="41.3681622595" lon="2.0799256861"><ele>70.79</ele><time>2012-11-01T08:52:09Z</time></trkpt><trkpt lat="41.3675760292" lon="2.0802542567"><ele>68.39</ele><time>2012-11-01T08:52:18Z</time></trkpt><trkpt lat="41.3670270983" lon="2.0807633735"><ele>67.91</ele><time>2012-11-01T08:52:27Z</time></trkpt><trkpt lat="41.3666046504" lon="2.0812995639"><ele>68.39</ele><time>2012-11-01T08:52:36Z</time></trkpt><trkpt lat="41.3662512694" lon="2.0817620773"><ele>69.35</ele><time>2012-11-01T08:52:45Z</time></trkpt><trkpt lat="41.3659253810" lon="2.0822404325"><ele>69.83</ele><time>2012-11-01T08:52:55Z</time></trkpt><trkpt lat="41.3657973893" lon="2.0824334677"><ele>70.31</ele><time>2012-11-01T08:53:01Z</time></trkpt><trkpt lat="41.3657198567" lon="2.0825511497"><ele>70.31</ele><time>2012-11-01T08:53:09Z</time></trkpt><trkpt lat="41.3656203635" lon="2.0827284269"><ele>70.79</ele><time>2012-11-01T08:53:14Z</time></trkpt><trkpt lat="41.3653189503" lon="2.0831320155"><ele>71.27</ele><time>2012-11-01T08:53:24Z</time></trkpt><trkpt lat="41.3652044535" lon="2.0832328498"><ele>71.27</ele><time>2012-11-01T08:53:27Z</time></trkpt><trkpt lat="41.3650799822" lon="2.0833078679"><ele>71.76</ele><time>2012-11-01T08:53:30Z</time></trkpt><trkpt lat="41.3646417763" lon="2.0834032539"><ele>70.79</ele><time>2012-11-01T08:53:39Z</time></trkpt><trkpt lat="41.3643399440" lon="2.0834289864"><ele>69.83</ele><time>2012-11-01T08:53:45Z</time></trkpt><trkpt lat="41.3640143070" lon="2.0834607538"><ele>69.35</ele><time>2012-11-01T08:53:52Z</time></trkpt><trkpt lat="41.3639666978" lon="2.0834343508"><ele>69.35</ele><time>2012-11-01T08:53:57Z</time></trkpt><trkpt lat="41.3638330065" lon="2.0834164973"><ele>68.87</ele><time>2012-11-01T08:54:05Z</time></trkpt><trkpt lat="41.3637511153" lon="2.0834718179"><ele>68.87</ele><time>2012-11-01T08:54:12Z</time></trkpt><trkpt lat="41.3637326751" lon="2.0835165773"><ele>69.35</ele><time>2012-11-01T08:54:19Z</time></trkpt><trkpt lat="41.3637238741" lon="2.0835878234"><ele>69.83</ele><time>2012-11-01T08:54:28Z</time></trkpt><trkpt lat="41.3637144025" lon="2.0836330857"><ele>69.83</ele><time>2012-11-01T08:54:37Z</time></trkpt><trkpt lat="41.3637080323" lon="2.0836519450"><ele>70.31</ele><time>2012-11-01T08:54:44Z</time></trkpt><trkpt lat="41.3637199346" lon="2.0836497657"><ele>70.31</ele><time>2012-11-01T08:54:52Z</time></trkpt><trkpt lat="41.3636993151" lon="2.0836705528"><ele>70.31</ele><time>2012-11-01T08:55:01Z</time></trkpt><trkpt lat="41.3636537176" lon="2.0836799406"><ele>70.31</ele><time>2012-11-01T08:55:11Z</time></trkpt><trkpt lat="41.3636554778" lon="2.0836749114"><ele>70.79</ele><time>2012-11-01T08:55:23Z</time></trkpt></trkseg></trk></gpx>